<?xml version="1.0" encoding="UTF-8" standalone="no" ?>
<gpx xmlns="http://www.topografix.com/GPX/1/1" xmlns:xsi="http://www.w3.org/2001/XMLSchema-instance" xsi:schemaLocation="http://www.topografix.com/GPX/1/1 http://www.topografix.com/GPX/1/1/gpx.xsd" version="1.1" creator="VisuGPX - https://www.visugpx.com">
  <metadata>
    <name>De Viroflay à Brimborion</name>
  </metadata>
  <trk>
    <name><![CDATA[De Viroflay à Brimborion_R1]]></name>
    <trkseg>
      <trkpt lat="48.80548" lon="2.16782">
        <ele>105.03</ele>
        <time>2025-11-06T08:27:06Z</time>
      </trkpt>
      <trkpt lat="48.80548" lon="2.16781">
        <ele>105.15</ele>
        <time>2025-11-06T08:27:43Z</time>
      </trkpt>
      <trkpt lat="48.80547" lon="2.16794">
        <ele>104.68</ele>
        <time>2025-11-06T08:27:57Z</time>
      </trkpt>
      <trkpt lat="48.80549" lon="2.168">
        <ele>104.82</ele>
        <time>2025-11-06T08:28:09Z</time>
      </trkpt>
      <trkpt lat="48.80551" lon="2.16813">
        <ele>104.53</ele>
        <time>2025-11-06T08:28:20Z</time>
      </trkpt>
      <trkpt lat="48.80547" lon="2.16843">
        <ele>105.09</ele>
        <time>2025-11-06T08:28:37Z</time>
      </trkpt>
      <trkpt lat="48.80548" lon="2.16858">
        <ele>103.43</ele>
        <time>2025-11-06T08:28:49Z</time>
      </trkpt>
      <trkpt lat="48.80549" lon="2.16867">
        <ele>101.8</ele>
        <time>2025-11-06T08:28:57Z</time>
      </trkpt>
      <trkpt lat="48.80547" lon="2.16883">
        <ele>100.55</ele>
        <time>2025-11-06T08:29:07Z</time>
      </trkpt>
      <trkpt lat="48.80548" lon="2.16885">
        <ele>100.52</ele>
        <time>2025-11-06T08:29:08Z</time>
      </trkpt>
      <trkpt lat="48.80548" lon="2.16889">
        <ele>100.08</ele>
        <time>2025-11-06T08:29:10Z</time>
      </trkpt>
      <trkpt lat="48.80546" lon="2.16911">
        <ele>97.86</ele>
        <time>2025-11-06T08:29:23Z</time>
      </trkpt>
      <trkpt lat="48.80545" lon="2.16922">
        <ele>96.88</ele>
        <time>2025-11-06T08:29:33Z</time>
      </trkpt>
      <trkpt lat="48.80539" lon="2.16924">
        <ele>96.11</ele>
        <time>2025-11-06T08:29:44Z</time>
      </trkpt>
      <trkpt lat="48.80529" lon="2.16927">
        <ele>95.29</ele>
        <time>2025-11-06T08:29:54Z</time>
      </trkpt>
      <trkpt lat="48.80528" lon="2.16927">
        <ele>95.15</ele>
        <time>2025-11-06T08:29:55Z</time>
      </trkpt>
      <trkpt lat="48.8051" lon="2.16932">
        <ele>94.85</ele>
        <time>2025-11-06T08:30:08Z</time>
      </trkpt>
      <trkpt lat="48.80492" lon="2.16933">
        <ele>92.93</ele>
        <time>2025-11-06T08:30:26Z</time>
      </trkpt>
      <trkpt lat="48.80483" lon="2.16935">
        <ele>93.07</ele>
        <time>2025-11-06T08:30:34Z</time>
      </trkpt>
      <trkpt lat="48.80473" lon="2.16938">
        <ele>91.63</ele>
        <time>2025-11-06T08:30:44Z</time>
      </trkpt>
      <trkpt lat="48.80463" lon="2.16941">
        <ele>91.65</ele>
        <time>2025-11-06T08:30:53Z</time>
      </trkpt>
      <trkpt lat="48.80454" lon="2.16944">
        <ele>91.47</ele>
        <time>2025-11-06T08:31:02Z</time>
      </trkpt>
      <trkpt lat="48.80441" lon="2.16948">
        <ele>90.61</ele>
        <time>2025-11-06T08:31:15Z</time>
      </trkpt>
      <trkpt lat="48.80431" lon="2.16942">
        <ele>91.13</ele>
        <time>2025-11-06T08:31:28Z</time>
      </trkpt>
      <trkpt lat="48.80423" lon="2.16934">
        <ele>90.94</ele>
        <time>2025-11-06T08:31:37Z</time>
      </trkpt>
      <trkpt lat="48.80418" lon="2.16934">
        <ele>91.01</ele>
        <time>2025-11-06T08:31:51Z</time>
      </trkpt>
      <trkpt lat="48.80413" lon="2.16936">
        <ele>91</ele>
        <time>2025-11-06T08:31:58Z</time>
      </trkpt>
      <trkpt lat="48.80407" lon="2.16951">
        <ele>91.42</ele>
        <time>2025-11-06T08:32:09Z</time>
      </trkpt>
      <trkpt lat="48.80407" lon="2.16958">
        <ele>91.21</ele>
        <time>2025-11-06T08:32:13Z</time>
      </trkpt>
      <trkpt lat="48.80406" lon="2.16963">
        <ele>91.7</ele>
        <time>2025-11-06T08:32:16Z</time>
      </trkpt>
      <trkpt lat="48.80404" lon="2.16969">
        <ele>91.67</ele>
        <time>2025-11-06T08:32:20Z</time>
      </trkpt>
      <trkpt lat="48.80395" lon="2.16975">
        <ele>92.27</ele>
        <time>2025-11-06T08:32:30Z</time>
      </trkpt>
      <trkpt lat="48.80391" lon="2.16992">
        <ele>91.84</ele>
        <time>2025-11-06T08:32:41Z</time>
      </trkpt>
      <trkpt lat="48.80387" lon="2.17005">
        <ele>92.53</ele>
        <time>2025-11-06T08:32:51Z</time>
      </trkpt>
      <trkpt lat="48.80385" lon="2.17015">
        <ele>92.97</ele>
        <time>2025-11-06T08:32:59Z</time>
      </trkpt>
      <trkpt lat="48.80376" lon="2.17028">
        <ele>93.78</ele>
        <time>2025-11-06T08:33:09Z</time>
      </trkpt>
      <trkpt lat="48.80364" lon="2.17036">
        <ele>94.44</ele>
        <time>2025-11-06T08:33:20Z</time>
      </trkpt>
      <trkpt lat="48.8035" lon="2.17043">
        <ele>95.68</ele>
        <time>2025-11-06T08:33:33Z</time>
      </trkpt>
      <trkpt lat="48.8034" lon="2.17047">
        <ele>96.16</ele>
        <time>2025-11-06T08:33:43Z</time>
      </trkpt>
      <trkpt lat="48.80335" lon="2.1705">
        <ele>96.48</ele>
        <time>2025-11-06T08:33:48Z</time>
      </trkpt>
      <trkpt lat="48.80331" lon="2.17052">
        <ele>96.36</ele>
        <time>2025-11-06T08:33:53Z</time>
      </trkpt>
      <trkpt lat="48.80324" lon="2.17056">
        <ele>96.49</ele>
        <time>2025-11-06T08:33:58Z</time>
      </trkpt>
      <trkpt lat="48.80323" lon="2.17056">
        <ele>97.18</ele>
        <time>2025-11-06T08:34:00Z</time>
      </trkpt>
      <trkpt lat="48.80307" lon="2.17059">
        <ele>98.21</ele>
        <time>2025-11-06T08:34:14Z</time>
      </trkpt>
      <trkpt lat="48.80297" lon="2.1706">
        <ele>98.77</ele>
        <time>2025-11-06T08:34:23Z</time>
      </trkpt>
      <trkpt lat="48.80289" lon="2.17062">
        <ele>99.24</ele>
        <time>2025-11-06T08:34:31Z</time>
      </trkpt>
      <trkpt lat="48.80282" lon="2.17064">
        <ele>100.5</ele>
        <time>2025-11-06T08:34:39Z</time>
      </trkpt>
      <trkpt lat="48.80269" lon="2.1707">
        <ele>101.71</ele>
        <time>2025-11-06T08:34:49Z</time>
      </trkpt>
      <trkpt lat="48.80265" lon="2.1707">
        <ele>101.83</ele>
        <time>2025-11-06T08:34:51Z</time>
      </trkpt>
      <trkpt lat="48.80255" lon="2.17073">
        <ele>102.19</ele>
        <time>2025-11-06T08:35:02Z</time>
      </trkpt>
      <trkpt lat="48.80244" lon="2.17075">
        <ele>102.51</ele>
        <time>2025-11-06T08:35:13Z</time>
      </trkpt>
      <trkpt lat="48.80234" lon="2.17078">
        <ele>103.31</ele>
        <time>2025-11-06T08:35:24Z</time>
      </trkpt>
      <trkpt lat="48.80225" lon="2.17083">
        <ele>103.86</ele>
        <time>2025-11-06T08:35:32Z</time>
      </trkpt>
      <trkpt lat="48.80221" lon="2.17085">
        <ele>103.84</ele>
        <time>2025-11-06T08:35:37Z</time>
      </trkpt>
      <trkpt lat="48.80216" lon="2.17085">
        <ele>103.66</ele>
        <time>2025-11-06T08:35:48Z</time>
      </trkpt>
      <trkpt lat="48.80213" lon="2.17087">
        <ele>103.81</ele>
        <time>2025-11-06T08:35:58Z</time>
      </trkpt>
      <trkpt lat="48.80205" lon="2.17089">
        <ele>104.29</ele>
        <time>2025-11-06T08:36:08Z</time>
      </trkpt>
      <trkpt lat="48.80191" lon="2.17083">
        <ele>105.23</ele>
        <time>2025-11-06T08:36:22Z</time>
      </trkpt>
      <trkpt lat="48.80185" lon="2.17082">
        <ele>105.81</ele>
        <time>2025-11-06T08:36:31Z</time>
      </trkpt>
      <trkpt lat="48.80179" lon="2.17081">
        <ele>105.92</ele>
        <time>2025-11-06T08:36:39Z</time>
      </trkpt>
      <trkpt lat="48.80175" lon="2.17081">
        <ele>105.67</ele>
        <time>2025-11-06T08:36:44Z</time>
      </trkpt>
      <trkpt lat="48.80162" lon="2.17083">
        <ele>106.61</ele>
        <time>2025-11-06T08:36:55Z</time>
      </trkpt>
      <trkpt lat="48.8016" lon="2.17083">
        <ele>106.61</ele>
        <time>2025-11-06T08:36:57Z</time>
      </trkpt>
      <trkpt lat="48.8014" lon="2.17086">
        <ele>107.7</ele>
        <time>2025-11-06T08:37:14Z</time>
      </trkpt>
      <trkpt lat="48.80124" lon="2.17089">
        <ele>107.65</ele>
        <time>2025-11-06T08:37:32Z</time>
      </trkpt>
      <trkpt lat="48.80114" lon="2.17095">
        <ele>109.05</ele>
        <time>2025-11-06T08:37:49Z</time>
      </trkpt>
      <trkpt lat="48.80096" lon="2.17096">
        <ele>110.16</ele>
        <time>2025-11-06T08:38:06Z</time>
      </trkpt>
      <trkpt lat="48.80077" lon="2.17101">
        <ele>111.61</ele>
        <time>2025-11-06T08:38:23Z</time>
      </trkpt>
      <trkpt lat="48.80063" lon="2.17104">
        <ele>111.87</ele>
        <time>2025-11-06T08:38:39Z</time>
      </trkpt>
      <trkpt lat="48.80047" lon="2.17104">
        <ele>111.46</ele>
        <time>2025-11-06T08:38:57Z</time>
      </trkpt>
      <trkpt lat="48.80046" lon="2.17104">
        <ele>111.35</ele>
        <time>2025-11-06T08:38:58Z</time>
      </trkpt>
      <trkpt lat="48.80035" lon="2.17111">
        <ele>111.18</ele>
        <time>2025-11-06T08:39:11Z</time>
      </trkpt>
      <trkpt lat="48.80029" lon="2.17119">
        <ele>110.89</ele>
        <time>2025-11-06T08:39:19Z</time>
      </trkpt>
      <trkpt lat="48.80022" lon="2.17123">
        <ele>110.53</ele>
        <time>2025-11-06T08:39:26Z</time>
      </trkpt>
      <trkpt lat="48.80012" lon="2.17127">
        <ele>111.12</ele>
        <time>2025-11-06T08:39:34Z</time>
      </trkpt>
      <trkpt lat="48.80002" lon="2.17134">
        <ele>111.25</ele>
        <time>2025-11-06T08:39:45Z</time>
      </trkpt>
      <trkpt lat="48.79996" lon="2.17138">
        <ele>111.47</ele>
        <time>2025-11-06T08:39:59Z</time>
      </trkpt>
      <trkpt lat="48.79991" lon="2.17138">
        <ele>110.91</ele>
        <time>2025-11-06T08:40:23Z</time>
      </trkpt>
      <trkpt lat="48.79992" lon="2.17137">
        <ele>111.88</ele>
        <time>2025-11-06T08:40:42Z</time>
      </trkpt>
      <trkpt lat="48.79992" lon="2.17138">
        <ele>111.79</ele>
        <time>2025-11-06T08:40:43Z</time>
      </trkpt>
      <trkpt lat="48.7999" lon="2.17145">
        <ele>111.76</ele>
        <time>2025-11-06T08:40:50Z</time>
      </trkpt>
      <trkpt lat="48.79985" lon="2.17148">
        <ele>112.09</ele>
        <time>2025-11-06T08:41:00Z</time>
      </trkpt>
      <trkpt lat="48.79979" lon="2.17151">
        <ele>112.17</ele>
        <time>2025-11-06T08:41:08Z</time>
      </trkpt>
      <trkpt lat="48.79961" lon="2.17148">
        <ele>112.75</ele>
        <time>2025-11-06T08:41:20Z</time>
      </trkpt>
      <trkpt lat="48.7994" lon="2.17142">
        <ele>112.82</ele>
        <time>2025-11-06T08:41:37Z</time>
      </trkpt>
      <trkpt lat="48.79934" lon="2.17136">
        <ele>113.24</ele>
        <time>2025-11-06T08:41:49Z</time>
      </trkpt>
      <trkpt lat="48.79921" lon="2.17136">
        <ele>114.3</ele>
        <time>2025-11-06T08:42:05Z</time>
      </trkpt>
      <trkpt lat="48.79919" lon="2.17129">
        <ele>114.22</ele>
        <time>2025-11-06T08:42:22Z</time>
      </trkpt>
      <trkpt lat="48.79919" lon="2.1713">
        <ele>114.3</ele>
        <time>2025-11-06T08:42:23Z</time>
      </trkpt>
      <trkpt lat="48.79921" lon="2.1713">
        <ele>114.79</ele>
        <time>2025-11-06T08:42:25Z</time>
      </trkpt>
      <trkpt lat="48.7993" lon="2.17125">
        <ele>114.2</ele>
        <time>2025-11-06T08:42:36Z</time>
      </trkpt>
      <trkpt lat="48.79931" lon="2.17117">
        <ele>114.74</ele>
        <time>2025-11-06T08:42:44Z</time>
      </trkpt>
      <trkpt lat="48.79931" lon="2.17102">
        <ele>114.4</ele>
        <time>2025-11-06T08:42:55Z</time>
      </trkpt>
      <trkpt lat="48.79931" lon="2.17094">
        <ele>114.92</ele>
        <time>2025-11-06T08:43:10Z</time>
      </trkpt>
      <trkpt lat="48.7993" lon="2.17078">
        <ele>115.45</ele>
        <time>2025-11-06T08:43:22Z</time>
      </trkpt>
      <trkpt lat="48.79927" lon="2.17054">
        <ele>116.35</ele>
        <time>2025-11-06T08:43:39Z</time>
      </trkpt>
      <trkpt lat="48.79924" lon="2.17058">
        <ele>116.72</ele>
        <time>2025-11-06T08:43:53Z</time>
      </trkpt>
      <trkpt lat="48.7992" lon="2.17072">
        <ele>116.74</ele>
        <time>2025-11-06T08:44:07Z</time>
      </trkpt>
      <trkpt lat="48.79914" lon="2.17072">
        <ele>116.69</ele>
        <time>2025-11-06T08:44:20Z</time>
      </trkpt>
      <trkpt lat="48.79909" lon="2.17072">
        <ele>116.41</ele>
        <time>2025-11-06T08:44:39Z</time>
      </trkpt>
      <trkpt lat="48.79909" lon="2.17069">
        <ele>116.71</ele>
        <time>2025-11-06T08:44:48Z</time>
      </trkpt>
      <trkpt lat="48.79908" lon="2.17052">
        <ele>117.46</ele>
        <time>2025-11-06T08:45:02Z</time>
      </trkpt>
      <trkpt lat="48.79899" lon="2.17045">
        <ele>118.31</ele>
        <time>2025-11-06T08:45:18Z</time>
      </trkpt>
      <trkpt lat="48.79886" lon="2.17048">
        <ele>119.43</ele>
        <time>2025-11-06T08:45:33Z</time>
      </trkpt>
      <trkpt lat="48.79872" lon="2.1705">
        <ele>120.15</ele>
        <time>2025-11-06T08:45:49Z</time>
      </trkpt>
      <trkpt lat="48.79865" lon="2.17049">
        <ele>120.82</ele>
        <time>2025-11-06T08:45:56Z</time>
      </trkpt>
      <trkpt lat="48.79862" lon="2.17048">
        <ele>120.78</ele>
        <time>2025-11-06T08:45:58Z</time>
      </trkpt>
      <trkpt lat="48.79851" lon="2.17043">
        <ele>121.93</ele>
        <time>2025-11-06T08:46:08Z</time>
      </trkpt>
      <trkpt lat="48.79846" lon="2.17043">
        <ele>121.79</ele>
        <time>2025-11-06T08:46:14Z</time>
      </trkpt>
      <trkpt lat="48.79842" lon="2.17041">
        <ele>122</ele>
        <time>2025-11-06T08:46:17Z</time>
      </trkpt>
      <trkpt lat="48.79837" lon="2.17039">
        <ele>122.3</ele>
        <time>2025-11-06T08:46:22Z</time>
      </trkpt>
      <trkpt lat="48.79822" lon="2.17033">
        <ele>123.37</ele>
        <time>2025-11-06T08:46:38Z</time>
      </trkpt>
      <trkpt lat="48.79814" lon="2.17026">
        <ele>123.98</ele>
        <time>2025-11-06T08:46:52Z</time>
      </trkpt>
      <trkpt lat="48.79808" lon="2.17016">
        <ele>125.45</ele>
        <time>2025-11-06T08:47:05Z</time>
      </trkpt>
      <trkpt lat="48.79799" lon="2.17007">
        <ele>127.14</ele>
        <time>2025-11-06T08:47:21Z</time>
      </trkpt>
      <trkpt lat="48.798" lon="2.17005">
        <ele>126.97</ele>
        <time>2025-11-06T08:47:41Z</time>
      </trkpt>
      <trkpt lat="48.79794" lon="2.17001">
        <ele>126.51</ele>
        <time>2025-11-06T08:47:57Z</time>
      </trkpt>
      <trkpt lat="48.79786" lon="2.16988">
        <ele>127.46</ele>
        <time>2025-11-06T08:48:12Z</time>
      </trkpt>
      <trkpt lat="48.79789" lon="2.16964">
        <ele>126.75</ele>
        <time>2025-11-06T08:48:30Z</time>
      </trkpt>
      <trkpt lat="48.79795" lon="2.16935">
        <ele>127.28</ele>
        <time>2025-11-06T08:48:47Z</time>
      </trkpt>
      <trkpt lat="48.79802" lon="2.16916">
        <ele>127.08</ele>
        <time>2025-11-06T08:49:03Z</time>
      </trkpt>
      <trkpt lat="48.79809" lon="2.16903">
        <ele>128.17</ele>
        <time>2025-11-06T08:49:16Z</time>
      </trkpt>
      <trkpt lat="48.79812" lon="2.16875">
        <ele>130.14</ele>
        <time>2025-11-06T08:49:33Z</time>
      </trkpt>
      <trkpt lat="48.79813" lon="2.16853">
        <ele>131.56</ele>
        <time>2025-11-06T08:49:50Z</time>
      </trkpt>
      <trkpt lat="48.79816" lon="2.16841">
        <ele>131.79</ele>
        <time>2025-11-06T08:49:59Z</time>
      </trkpt>
      <trkpt lat="48.79816" lon="2.16823">
        <ele>130.99</ele>
        <time>2025-11-06T08:50:14Z</time>
      </trkpt>
      <trkpt lat="48.79821" lon="2.16806">
        <ele>132.15</ele>
        <time>2025-11-06T08:50:29Z</time>
      </trkpt>
      <trkpt lat="48.79825" lon="2.16784">
        <ele>131.58</ele>
        <time>2025-11-06T08:50:47Z</time>
      </trkpt>
      <trkpt lat="48.79827" lon="2.16775">
        <ele>131.2</ele>
        <time>2025-11-06T08:50:56Z</time>
      </trkpt>
      <trkpt lat="48.79833" lon="2.16753">
        <ele>130.76</ele>
        <time>2025-11-06T08:51:12Z</time>
      </trkpt>
      <trkpt lat="48.79839" lon="2.16733">
        <ele>129.16</ele>
        <time>2025-11-06T08:51:27Z</time>
      </trkpt>
      <trkpt lat="48.79843" lon="2.16704">
        <ele>127.64</ele>
        <time>2025-11-06T08:51:43Z</time>
      </trkpt>
      <trkpt lat="48.7985" lon="2.1669">
        <ele>125.61</ele>
        <time>2025-11-06T08:52:01Z</time>
      </trkpt>
      <trkpt lat="48.7985" lon="2.16681">
        <ele>123.77</ele>
        <time>2025-11-06T08:52:11Z</time>
      </trkpt>
      <trkpt lat="48.79858" lon="2.16667">
        <ele>120.98</ele>
        <time>2025-11-06T08:52:27Z</time>
      </trkpt>
      <trkpt lat="48.79851" lon="2.16653">
        <ele>122.47</ele>
        <time>2025-11-06T08:52:40Z</time>
      </trkpt>
      <trkpt lat="48.79849" lon="2.16656">
        <ele>122.19</ele>
        <time>2025-11-06T08:52:58Z</time>
      </trkpt>
      <trkpt lat="48.79845" lon="2.16653">
        <ele>122.51</ele>
        <time>2025-11-06T08:53:19Z</time>
      </trkpt>
      <trkpt lat="48.79844" lon="2.16653">
        <ele>122.42</ele>
        <time>2025-11-06T08:53:40Z</time>
      </trkpt>
      <trkpt lat="48.79844" lon="2.16653">
        <ele>122.06</ele>
        <time>2025-11-06T08:53:45Z</time>
      </trkpt>
      <trkpt lat="48.7984" lon="2.16646">
        <ele>122.56</ele>
        <time>2025-11-06T08:54:00Z</time>
      </trkpt>
      <trkpt lat="48.79839" lon="2.16641">
        <ele>121.81</ele>
        <time>2025-11-06T08:54:04Z</time>
      </trkpt>
      <trkpt lat="48.79838" lon="2.16624">
        <ele>121.99</ele>
        <time>2025-11-06T08:54:16Z</time>
      </trkpt>
      <trkpt lat="48.79837" lon="2.1661">
        <ele>120.72</ele>
        <time>2025-11-06T08:54:26Z</time>
      </trkpt>
      <trkpt lat="48.79831" lon="2.16599">
        <ele>121.4</ele>
        <time>2025-11-06T08:54:40Z</time>
      </trkpt>
      <trkpt lat="48.7983" lon="2.1658">
        <ele>122.13</ele>
        <time>2025-11-06T08:54:54Z</time>
      </trkpt>
      <trkpt lat="48.79832" lon="2.16575">
        <ele>122.28</ele>
        <time>2025-11-06T08:54:57Z</time>
      </trkpt>
      <trkpt lat="48.79833" lon="2.16563">
        <ele>121.93</ele>
        <time>2025-11-06T08:55:05Z</time>
      </trkpt>
      <trkpt lat="48.79828" lon="2.1653">
        <ele>122.34</ele>
        <time>2025-11-06T08:55:23Z</time>
      </trkpt>
      <trkpt lat="48.79828" lon="2.16528">
        <ele>122.13</ele>
        <time>2025-11-06T08:55:24Z</time>
      </trkpt>
      <trkpt lat="48.79821" lon="2.16514">
        <ele>122.35</ele>
        <time>2025-11-06T08:55:36Z</time>
      </trkpt>
      <trkpt lat="48.79811" lon="2.16498">
        <ele>123.03</ele>
        <time>2025-11-06T08:55:52Z</time>
      </trkpt>
      <trkpt lat="48.79795" lon="2.16488">
        <ele>123.66</ele>
        <time>2025-11-06T08:56:09Z</time>
      </trkpt>
      <trkpt lat="48.79778" lon="2.16483">
        <ele>123.4</ele>
        <time>2025-11-06T08:56:26Z</time>
      </trkpt>
      <trkpt lat="48.7976" lon="2.16486">
        <ele>123.83</ele>
        <time>2025-11-06T08:56:43Z</time>
      </trkpt>
      <trkpt lat="48.79745" lon="2.16499">
        <ele>124.61</ele>
        <time>2025-11-06T08:57:02Z</time>
      </trkpt>
      <trkpt lat="48.79733" lon="2.16517">
        <ele>124.3</ele>
        <time>2025-11-06T08:57:17Z</time>
      </trkpt>
      <trkpt lat="48.79718" lon="2.1654">
        <ele>124.75</ele>
        <time>2025-11-06T08:57:36Z</time>
      </trkpt>
      <trkpt lat="48.79711" lon="2.16556">
        <ele>124.99</ele>
        <time>2025-11-06T08:57:52Z</time>
      </trkpt>
      <trkpt lat="48.79698" lon="2.16562">
        <ele>125.14</ele>
        <time>2025-11-06T08:58:08Z</time>
      </trkpt>
      <trkpt lat="48.79683" lon="2.16565">
        <ele>125.74</ele>
        <time>2025-11-06T08:58:21Z</time>
      </trkpt>
      <trkpt lat="48.79667" lon="2.16563">
        <ele>126.24</ele>
        <time>2025-11-06T08:58:36Z</time>
      </trkpt>
      <trkpt lat="48.7966" lon="2.16562">
        <ele>126.01</ele>
        <time>2025-11-06T08:58:43Z</time>
      </trkpt>
      <trkpt lat="48.79647" lon="2.1656">
        <ele>126.24</ele>
        <time>2025-11-06T08:58:57Z</time>
      </trkpt>
      <trkpt lat="48.79639" lon="2.16561">
        <ele>126.38</ele>
        <time>2025-11-06T08:59:08Z</time>
      </trkpt>
      <trkpt lat="48.79626" lon="2.16567">
        <ele>127</ele>
        <time>2025-11-06T08:59:20Z</time>
      </trkpt>
      <trkpt lat="48.7962" lon="2.16566">
        <ele>126.99</ele>
        <time>2025-11-06T08:59:30Z</time>
      </trkpt>
      <trkpt lat="48.79606" lon="2.16569">
        <ele>128.21</ele>
        <time>2025-11-06T08:59:43Z</time>
      </trkpt>
      <trkpt lat="48.79589" lon="2.16576">
        <ele>128.13</ele>
        <time>2025-11-06T08:59:57Z</time>
      </trkpt>
      <trkpt lat="48.79572" lon="2.1658">
        <ele>128.08</ele>
        <time>2025-11-06T09:00:10Z</time>
      </trkpt>
      <trkpt lat="48.79553" lon="2.16569">
        <ele>128.67</ele>
        <time>2025-11-06T09:00:26Z</time>
      </trkpt>
      <trkpt lat="48.79539" lon="2.1656">
        <ele>128.68</ele>
        <time>2025-11-06T09:00:41Z</time>
      </trkpt>
      <trkpt lat="48.79528" lon="2.16559">
        <ele>128.64</ele>
        <time>2025-11-06T09:00:56Z</time>
      </trkpt>
      <trkpt lat="48.79514" lon="2.16558">
        <ele>128.51</ele>
        <time>2025-11-06T09:01:10Z</time>
      </trkpt>
      <trkpt lat="48.795" lon="2.16563">
        <ele>129.25</ele>
        <time>2025-11-06T09:01:27Z</time>
      </trkpt>
      <trkpt lat="48.79485" lon="2.16579">
        <ele>129.76</ele>
        <time>2025-11-06T09:01:46Z</time>
      </trkpt>
      <trkpt lat="48.79473" lon="2.16602">
        <ele>129.66</ele>
        <time>2025-11-06T09:02:03Z</time>
      </trkpt>
      <trkpt lat="48.79462" lon="2.16617">
        <ele>130.66</ele>
        <time>2025-11-06T09:02:18Z</time>
      </trkpt>
      <trkpt lat="48.79452" lon="2.16625">
        <ele>131.09</ele>
        <time>2025-11-06T09:02:33Z</time>
      </trkpt>
      <trkpt lat="48.79449" lon="2.16625">
        <ele>130.93</ele>
        <time>2025-11-06T09:02:37Z</time>
      </trkpt>
      <trkpt lat="48.79434" lon="2.1663">
        <ele>130.99</ele>
        <time>2025-11-06T09:02:51Z</time>
      </trkpt>
      <trkpt lat="48.79416" lon="2.1663">
        <ele>131.33</ele>
        <time>2025-11-06T09:03:05Z</time>
      </trkpt>
      <trkpt lat="48.79405" lon="2.16626">
        <ele>131.56</ele>
        <time>2025-11-06T09:03:14Z</time>
      </trkpt>
      <trkpt lat="48.7939" lon="2.16611">
        <ele>132.31</ele>
        <time>2025-11-06T09:03:32Z</time>
      </trkpt>
      <trkpt lat="48.79388" lon="2.16587">
        <ele>131.59</ele>
        <time>2025-11-06T09:03:49Z</time>
      </trkpt>
      <trkpt lat="48.7939" lon="2.16585">
        <ele>131.7</ele>
        <time>2025-11-06T09:04:07Z</time>
      </trkpt>
      <trkpt lat="48.79392" lon="2.16586">
        <ele>131.54</ele>
        <time>2025-11-06T09:04:30Z</time>
      </trkpt>
      <trkpt lat="48.79392" lon="2.16585">
        <ele>131.86</ele>
        <time>2025-11-06T09:04:50Z</time>
      </trkpt>
      <trkpt lat="48.79397" lon="2.16584">
        <ele>132.11</ele>
        <time>2025-11-06T09:05:11Z</time>
      </trkpt>
      <trkpt lat="48.79397" lon="2.16583">
        <ele>131.33</ele>
        <time>2025-11-06T09:05:32Z</time>
      </trkpt>
      <trkpt lat="48.79395" lon="2.16582">
        <ele>131.49</ele>
        <time>2025-11-06T09:05:36Z</time>
      </trkpt>
      <trkpt lat="48.79392" lon="2.1658">
        <ele>131.51</ele>
        <time>2025-11-06T09:05:56Z</time>
      </trkpt>
      <trkpt lat="48.79394" lon="2.1658">
        <ele>131.59</ele>
        <time>2025-11-06T09:05:59Z</time>
      </trkpt>
      <trkpt lat="48.79395" lon="2.16567">
        <ele>132.25</ele>
        <time>2025-11-06T09:06:16Z</time>
      </trkpt>
      <trkpt lat="48.79404" lon="2.16557">
        <ele>132.16</ele>
        <time>2025-11-06T09:06:28Z</time>
      </trkpt>
      <trkpt lat="48.79411" lon="2.16547">
        <ele>132.73</ele>
        <time>2025-11-06T09:06:40Z</time>
      </trkpt>
      <trkpt lat="48.79414" lon="2.16521">
        <ele>133.4</ele>
        <time>2025-11-06T09:06:58Z</time>
      </trkpt>
      <trkpt lat="48.79406" lon="2.16491">
        <ele>133.49</ele>
        <time>2025-11-06T09:07:16Z</time>
      </trkpt>
      <trkpt lat="48.79391" lon="2.16476">
        <ele>133.16</ele>
        <time>2025-11-06T09:07:32Z</time>
      </trkpt>
      <trkpt lat="48.7938" lon="2.16476">
        <ele>133.54</ele>
        <time>2025-11-06T09:07:44Z</time>
      </trkpt>
      <trkpt lat="48.79371" lon="2.16474">
        <ele>133.76</ele>
        <time>2025-11-06T09:07:59Z</time>
      </trkpt>
      <trkpt lat="48.79358" lon="2.16474">
        <ele>134.22</ele>
        <time>2025-11-06T09:08:14Z</time>
      </trkpt>
      <trkpt lat="48.7934" lon="2.16476">
        <ele>133.7</ele>
        <time>2025-11-06T09:08:29Z</time>
      </trkpt>
      <trkpt lat="48.7932" lon="2.16476">
        <ele>135.01</ele>
        <time>2025-11-06T09:08:45Z</time>
      </trkpt>
      <trkpt lat="48.79305" lon="2.16476">
        <ele>134.54</ele>
        <time>2025-11-06T09:09:02Z</time>
      </trkpt>
      <trkpt lat="48.79294" lon="2.1647">
        <ele>135.08</ele>
        <time>2025-11-06T09:09:15Z</time>
      </trkpt>
      <trkpt lat="48.7928" lon="2.16461">
        <ele>134.86</ele>
        <time>2025-11-06T09:09:31Z</time>
      </trkpt>
      <trkpt lat="48.79264" lon="2.16452">
        <ele>135.61</ele>
        <time>2025-11-06T09:09:50Z</time>
      </trkpt>
      <trkpt lat="48.79254" lon="2.16459">
        <ele>135.36</ele>
        <time>2025-11-06T09:10:05Z</time>
      </trkpt>
      <trkpt lat="48.79252" lon="2.16463">
        <ele>135.73</ele>
        <time>2025-11-06T09:10:11Z</time>
      </trkpt>
      <trkpt lat="48.79247" lon="2.16474">
        <ele>135.91</ele>
        <time>2025-11-06T09:10:23Z</time>
      </trkpt>
      <trkpt lat="48.79248" lon="2.16475">
        <ele>135.84</ele>
        <time>2025-11-06T09:10:25Z</time>
      </trkpt>
      <trkpt lat="48.79242" lon="2.1649">
        <ele>136.26</ele>
        <time>2025-11-06T09:10:32Z</time>
      </trkpt>
      <trkpt lat="48.79242" lon="2.16495">
        <ele>136.1</ele>
        <time>2025-11-06T09:10:37Z</time>
      </trkpt>
      <trkpt lat="48.7925" lon="2.16513">
        <ele>137.21</ele>
        <time>2025-11-06T09:10:49Z</time>
      </trkpt>
      <trkpt lat="48.79255" lon="2.16529">
        <ele>136.68</ele>
        <time>2025-11-06T09:10:59Z</time>
      </trkpt>
      <trkpt lat="48.79257" lon="2.16533">
        <ele>136.69</ele>
        <time>2025-11-06T09:11:03Z</time>
      </trkpt>
      <trkpt lat="48.79258" lon="2.16547">
        <ele>137.21</ele>
        <time>2025-11-06T09:11:13Z</time>
      </trkpt>
      <trkpt lat="48.79252" lon="2.16567">
        <ele>137.91</ele>
        <time>2025-11-06T09:11:23Z</time>
      </trkpt>
      <trkpt lat="48.79235" lon="2.16592">
        <ele>138.17</ele>
        <time>2025-11-06T09:11:37Z</time>
      </trkpt>
      <trkpt lat="48.79228" lon="2.16605">
        <ele>137.71</ele>
        <time>2025-11-06T09:11:53Z</time>
      </trkpt>
      <trkpt lat="48.7921" lon="2.16606">
        <ele>138.41</ele>
        <time>2025-11-06T09:12:09Z</time>
      </trkpt>
      <trkpt lat="48.79187" lon="2.16598">
        <ele>139.11</ele>
        <time>2025-11-06T09:12:30Z</time>
      </trkpt>
      <trkpt lat="48.79186" lon="2.16597">
        <ele>139.45</ele>
        <time>2025-11-06T09:12:31Z</time>
      </trkpt>
      <trkpt lat="48.79174" lon="2.1659">
        <ele>139.48</ele>
        <time>2025-11-06T09:12:42Z</time>
      </trkpt>
      <trkpt lat="48.79156" lon="2.16583">
        <ele>139.73</ele>
        <time>2025-11-06T09:13:00Z</time>
      </trkpt>
      <trkpt lat="48.79148" lon="2.16588">
        <ele>140.39</ele>
        <time>2025-11-06T09:13:13Z</time>
      </trkpt>
      <trkpt lat="48.79148" lon="2.16588">
        <ele>140.7</ele>
        <time>2025-11-06T09:13:14Z</time>
      </trkpt>
      <trkpt lat="48.79139" lon="2.16611">
        <ele>141.32</ele>
        <time>2025-11-06T09:13:31Z</time>
      </trkpt>
      <trkpt lat="48.79134" lon="2.16631">
        <ele>141.07</ele>
        <time>2025-11-06T09:13:43Z</time>
      </trkpt>
      <trkpt lat="48.7913" lon="2.16647">
        <ele>142.33</ele>
        <time>2025-11-06T09:13:55Z</time>
      </trkpt>
      <trkpt lat="48.79129" lon="2.1665">
        <ele>141.49</ele>
        <time>2025-11-06T09:13:57Z</time>
      </trkpt>
      <trkpt lat="48.79128" lon="2.16653">
        <ele>142</ele>
        <time>2025-11-06T09:13:59Z</time>
      </trkpt>
      <trkpt lat="48.79117" lon="2.16681">
        <ele>141.64</ele>
        <time>2025-11-06T09:14:18Z</time>
      </trkpt>
      <trkpt lat="48.79115" lon="2.16682">
        <ele>141.59</ele>
        <time>2025-11-06T09:14:21Z</time>
      </trkpt>
      <trkpt lat="48.79098" lon="2.16684">
        <ele>141.73</ele>
        <time>2025-11-06T09:14:36Z</time>
      </trkpt>
      <trkpt lat="48.79097" lon="2.16687">
        <ele>141.33</ele>
        <time>2025-11-06T09:14:50Z</time>
      </trkpt>
      <trkpt lat="48.79103" lon="2.16697">
        <ele>140.63</ele>
        <time>2025-11-06T09:15:06Z</time>
      </trkpt>
      <trkpt lat="48.79104" lon="2.16698">
        <ele>140.62</ele>
        <time>2025-11-06T09:15:07Z</time>
      </trkpt>
      <trkpt lat="48.79104" lon="2.16701">
        <ele>143.22</ele>
        <time>2025-11-06T09:15:10Z</time>
      </trkpt>
      <trkpt lat="48.79103" lon="2.16705">
        <ele>143.72</ele>
        <time>2025-11-06T09:15:14Z</time>
      </trkpt>
      <trkpt lat="48.79102" lon="2.1671">
        <ele>143.68</ele>
        <time>2025-11-06T09:15:17Z</time>
      </trkpt>
      <trkpt lat="48.79102" lon="2.16714">
        <ele>144.47</ele>
        <time>2025-11-06T09:15:21Z</time>
      </trkpt>
      <trkpt lat="48.79103" lon="2.16716">
        <ele>145.13</ele>
        <time>2025-11-06T09:15:24Z</time>
      </trkpt>
      <trkpt lat="48.79102" lon="2.16733">
        <ele>146.53</ele>
        <time>2025-11-06T09:15:36Z</time>
      </trkpt>
      <trkpt lat="48.79105" lon="2.16745">
        <ele>147.04</ele>
        <time>2025-11-06T09:15:46Z</time>
      </trkpt>
      <trkpt lat="48.79105" lon="2.16767">
        <ele>149.91</ele>
        <time>2025-11-06T09:16:06Z</time>
      </trkpt>
      <trkpt lat="48.79106" lon="2.16795">
        <ele>151.46</ele>
        <time>2025-11-06T09:16:25Z</time>
      </trkpt>
      <trkpt lat="48.79106" lon="2.16817">
        <ele>154.27</ele>
        <time>2025-11-06T09:16:45Z</time>
      </trkpt>
      <trkpt lat="48.79104" lon="2.1682">
        <ele>154.8</ele>
        <time>2025-11-06T09:16:50Z</time>
      </trkpt>
      <trkpt lat="48.79105" lon="2.16824">
        <ele>155.56</ele>
        <time>2025-11-06T09:16:57Z</time>
      </trkpt>
      <trkpt lat="48.79111" lon="2.16843">
        <ele>154.98</ele>
        <time>2025-11-06T09:17:11Z</time>
      </trkpt>
      <trkpt lat="48.7911" lon="2.16846">
        <ele>156.73</ele>
        <time>2025-11-06T09:17:16Z</time>
      </trkpt>
      <trkpt lat="48.79111" lon="2.16846">
        <ele>156.89</ele>
        <time>2025-11-06T09:17:35Z</time>
      </trkpt>
      <trkpt lat="48.79107" lon="2.16842">
        <ele>157.28</ele>
        <time>2025-11-06T09:17:57Z</time>
      </trkpt>
      <trkpt lat="48.79109" lon="2.16846">
        <ele>156.74</ele>
        <time>2025-11-06T09:18:19Z</time>
      </trkpt>
      <trkpt lat="48.79108" lon="2.16841">
        <ele>157.04</ele>
        <time>2025-11-06T09:18:45Z</time>
      </trkpt>
      <trkpt lat="48.7911" lon="2.16843">
        <ele>156.6</ele>
        <time>2025-11-06T09:19:08Z</time>
      </trkpt>
      <trkpt lat="48.7911" lon="2.16841">
        <ele>157.24</ele>
        <time>2025-11-06T09:19:30Z</time>
      </trkpt>
      <trkpt lat="48.79106" lon="2.16845">
        <ele>156.65</ele>
        <time>2025-11-06T09:19:54Z</time>
      </trkpt>
      <trkpt lat="48.79106" lon="2.16841">
        <ele>156.84</ele>
        <time>2025-11-06T09:20:18Z</time>
      </trkpt>
      <trkpt lat="48.79105" lon="2.16839">
        <ele>157.08</ele>
        <time>2025-11-06T09:20:43Z</time>
      </trkpt>
      <trkpt lat="48.7911" lon="2.16851">
        <ele>157.65</ele>
        <time>2025-11-06T09:20:55Z</time>
      </trkpt>
      <trkpt lat="48.79113" lon="2.16853">
        <ele>157.55</ele>
        <time>2025-11-06T09:21:09Z</time>
      </trkpt>
      <trkpt lat="48.79115" lon="2.16855">
        <ele>158.36</ele>
        <time>2025-11-06T09:21:27Z</time>
      </trkpt>
      <trkpt lat="48.79118" lon="2.16873">
        <ele>158.2</ele>
        <time>2025-11-06T09:21:44Z</time>
      </trkpt>
      <trkpt lat="48.79118" lon="2.16894">
        <ele>158.92</ele>
        <time>2025-11-06T09:22:00Z</time>
      </trkpt>
      <trkpt lat="48.79128" lon="2.16921">
        <ele>158.12</ele>
        <time>2025-11-06T09:22:17Z</time>
      </trkpt>
      <trkpt lat="48.79137" lon="2.16945">
        <ele>158.46</ele>
        <time>2025-11-06T09:22:34Z</time>
      </trkpt>
      <trkpt lat="48.79145" lon="2.16973">
        <ele>158.15</ele>
        <time>2025-11-06T09:22:52Z</time>
      </trkpt>
      <trkpt lat="48.79148" lon="2.16992">
        <ele>157.92</ele>
        <time>2025-11-06T09:23:06Z</time>
      </trkpt>
      <trkpt lat="48.79153" lon="2.17013">
        <ele>157.88</ele>
        <time>2025-11-06T09:23:22Z</time>
      </trkpt>
      <trkpt lat="48.79161" lon="2.17035">
        <ele>157.53</ele>
        <time>2025-11-06T09:23:39Z</time>
      </trkpt>
      <trkpt lat="48.79167" lon="2.17062">
        <ele>157</ele>
        <time>2025-11-06T09:23:56Z</time>
      </trkpt>
      <trkpt lat="48.79172" lon="2.17083">
        <ele>156.97</ele>
        <time>2025-11-06T09:24:09Z</time>
      </trkpt>
      <trkpt lat="48.79173" lon="2.17102">
        <ele>156.77</ele>
        <time>2025-11-06T09:24:21Z</time>
      </trkpt>
      <trkpt lat="48.79177" lon="2.17113">
        <ele>156.77</ele>
        <time>2025-11-06T09:24:27Z</time>
      </trkpt>
      <trkpt lat="48.79182" lon="2.17124">
        <ele>156.66</ele>
        <time>2025-11-06T09:24:35Z</time>
      </trkpt>
      <trkpt lat="48.79189" lon="2.17147">
        <ele>156.6</ele>
        <time>2025-11-06T09:24:51Z</time>
      </trkpt>
      <trkpt lat="48.79201" lon="2.17183">
        <ele>156.01</ele>
        <time>2025-11-06T09:25:10Z</time>
      </trkpt>
      <trkpt lat="48.79207" lon="2.17211">
        <ele>155.53</ele>
        <time>2025-11-06T09:25:28Z</time>
      </trkpt>
      <trkpt lat="48.7921" lon="2.17238">
        <ele>155.18</ele>
        <time>2025-11-06T09:25:44Z</time>
      </trkpt>
      <trkpt lat="48.79218" lon="2.17258">
        <ele>155.41</ele>
        <time>2025-11-06T09:25:58Z</time>
      </trkpt>
      <trkpt lat="48.79216" lon="2.17278">
        <ele>155.37</ele>
        <time>2025-11-06T09:26:12Z</time>
      </trkpt>
      <trkpt lat="48.7921" lon="2.17287">
        <ele>155.09</ele>
        <time>2025-11-06T09:26:29Z</time>
      </trkpt>
      <trkpt lat="48.79199" lon="2.17298">
        <ele>154.46</ele>
        <time>2025-11-06T09:26:43Z</time>
      </trkpt>
      <trkpt lat="48.79192" lon="2.17305">
        <ele>154.77</ele>
        <time>2025-11-06T09:26:57Z</time>
      </trkpt>
      <trkpt lat="48.79176" lon="2.17323">
        <ele>154.78</ele>
        <time>2025-11-06T09:27:15Z</time>
      </trkpt>
      <trkpt lat="48.79165" lon="2.17335">
        <ele>155.32</ele>
        <time>2025-11-06T09:27:29Z</time>
      </trkpt>
      <trkpt lat="48.79153" lon="2.17345">
        <ele>155.04</ele>
        <time>2025-11-06T09:27:45Z</time>
      </trkpt>
      <trkpt lat="48.79152" lon="2.17346">
        <ele>154.54</ele>
        <time>2025-11-06T09:27:47Z</time>
      </trkpt>
      <trkpt lat="48.79135" lon="2.17363">
        <ele>155.18</ele>
        <time>2025-11-06T09:28:05Z</time>
      </trkpt>
      <trkpt lat="48.79119" lon="2.17381">
        <ele>155.52</ele>
        <time>2025-11-06T09:28:21Z</time>
      </trkpt>
      <trkpt lat="48.79112" lon="2.17388">
        <ele>155.48</ele>
        <time>2025-11-06T09:29:25Z</time>
      </trkpt>
      <trkpt lat="48.79117" lon="2.17395">
        <ele>154.14</ele>
        <time>2025-11-06T09:29:39Z</time>
      </trkpt>
      <trkpt lat="48.79126" lon="2.17405">
        <ele>153.32</ele>
        <time>2025-11-06T09:29:53Z</time>
      </trkpt>
      <trkpt lat="48.7914" lon="2.17421">
        <ele>152.4</ele>
        <time>2025-11-06T09:30:09Z</time>
      </trkpt>
      <trkpt lat="48.79151" lon="2.17439">
        <ele>151.06</ele>
        <time>2025-11-06T09:30:28Z</time>
      </trkpt>
      <trkpt lat="48.79153" lon="2.17446">
        <ele>150.67</ele>
        <time>2025-11-06T09:30:36Z</time>
      </trkpt>
      <trkpt lat="48.79156" lon="2.1745">
        <ele>150.27</ele>
        <time>2025-11-06T09:30:40Z</time>
      </trkpt>
      <trkpt lat="48.79166" lon="2.17471">
        <ele>149</ele>
        <time>2025-11-06T09:30:54Z</time>
      </trkpt>
      <trkpt lat="48.79167" lon="2.17472">
        <ele>149.04</ele>
        <time>2025-11-06T09:30:56Z</time>
      </trkpt>
      <trkpt lat="48.7917" lon="2.1748">
        <ele>147.86</ele>
        <time>2025-11-06T09:31:05Z</time>
      </trkpt>
      <trkpt lat="48.79164" lon="2.17491">
        <ele>147.86</ele>
        <time>2025-11-06T09:31:30Z</time>
      </trkpt>
      <trkpt lat="48.79163" lon="2.17493">
        <ele>148.06</ele>
        <time>2025-11-06T09:31:54Z</time>
      </trkpt>
      <trkpt lat="48.79165" lon="2.17496">
        <ele>147.3</ele>
        <time>2025-11-06T09:31:57Z</time>
      </trkpt>
      <trkpt lat="48.79167" lon="2.17517">
        <ele>149.36</ele>
        <time>2025-11-06T09:32:15Z</time>
      </trkpt>
      <trkpt lat="48.79168" lon="2.17532">
        <ele>151.12</ele>
        <time>2025-11-06T09:32:27Z</time>
      </trkpt>
      <trkpt lat="48.79169" lon="2.17539">
        <ele>151.7</ele>
        <time>2025-11-06T09:32:34Z</time>
      </trkpt>
      <trkpt lat="48.79165" lon="2.17554">
        <ele>152.06</ele>
        <time>2025-11-06T09:32:50Z</time>
      </trkpt>
      <trkpt lat="48.79163" lon="2.17559">
        <ele>152.32</ele>
        <time>2025-11-06T09:32:54Z</time>
      </trkpt>
      <trkpt lat="48.79161" lon="2.17568">
        <ele>152.31</ele>
        <time>2025-11-06T09:33:01Z</time>
      </trkpt>
      <trkpt lat="48.79159" lon="2.17575">
        <ele>151.98</ele>
        <time>2025-11-06T09:33:06Z</time>
      </trkpt>
      <trkpt lat="48.79157" lon="2.1758">
        <ele>152.2</ele>
        <time>2025-11-06T09:33:09Z</time>
      </trkpt>
      <trkpt lat="48.79157" lon="2.17584">
        <ele>152.28</ele>
        <time>2025-11-06T09:33:12Z</time>
      </trkpt>
      <trkpt lat="48.79155" lon="2.17588">
        <ele>152.6</ele>
        <time>2025-11-06T09:33:16Z</time>
      </trkpt>
      <trkpt lat="48.7915" lon="2.17599">
        <ele>152.95</ele>
        <time>2025-11-06T09:33:24Z</time>
      </trkpt>
      <trkpt lat="48.79146" lon="2.17625">
        <ele>151.93</ele>
        <time>2025-11-06T09:33:41Z</time>
      </trkpt>
      <trkpt lat="48.79147" lon="2.17633">
        <ele>152.07</ele>
        <time>2025-11-06T09:33:53Z</time>
      </trkpt>
      <trkpt lat="48.79138" lon="2.17658">
        <ele>152.25</ele>
        <time>2025-11-06T09:34:12Z</time>
      </trkpt>
      <trkpt lat="48.7912" lon="2.17681">
        <ele>152.53</ele>
        <time>2025-11-06T09:34:30Z</time>
      </trkpt>
      <trkpt lat="48.79117" lon="2.17683">
        <ele>152.62</ele>
        <time>2025-11-06T09:34:32Z</time>
      </trkpt>
      <trkpt lat="48.79107" lon="2.17689">
        <ele>153.12</ele>
        <time>2025-11-06T09:34:43Z</time>
      </trkpt>
      <trkpt lat="48.79094" lon="2.17698">
        <ele>154.36</ele>
        <time>2025-11-06T09:35:04Z</time>
      </trkpt>
      <trkpt lat="48.79077" lon="2.17715">
        <ele>154.48</ele>
        <time>2025-11-06T09:35:23Z</time>
      </trkpt>
      <trkpt lat="48.79058" lon="2.17732">
        <ele>155.03</ele>
        <time>2025-11-06T09:35:41Z</time>
      </trkpt>
      <trkpt lat="48.79052" lon="2.1774">
        <ele>155.13</ele>
        <time>2025-11-06T09:35:47Z</time>
      </trkpt>
      <trkpt lat="48.79049" lon="2.17742">
        <ele>154.97</ele>
        <time>2025-11-06T09:35:50Z</time>
      </trkpt>
      <trkpt lat="48.79047" lon="2.17743">
        <ele>155.45</ele>
        <time>2025-11-06T09:35:53Z</time>
      </trkpt>
      <trkpt lat="48.79036" lon="2.17751">
        <ele>155.69</ele>
        <time>2025-11-06T09:36:07Z</time>
      </trkpt>
      <trkpt lat="48.79021" lon="2.17764">
        <ele>156.08</ele>
        <time>2025-11-06T09:36:24Z</time>
      </trkpt>
      <trkpt lat="48.79017" lon="2.17766">
        <ele>156.01</ele>
        <time>2025-11-06T09:36:30Z</time>
      </trkpt>
      <trkpt lat="48.79014" lon="2.17768">
        <ele>156.07</ele>
        <time>2025-11-06T09:36:32Z</time>
      </trkpt>
      <trkpt lat="48.79007" lon="2.17771">
        <ele>156.43</ele>
        <time>2025-11-06T09:36:39Z</time>
      </trkpt>
      <trkpt lat="48.78994" lon="2.17784">
        <ele>156.06</ele>
        <time>2025-11-06T09:36:52Z</time>
      </trkpt>
      <trkpt lat="48.78981" lon="2.17794">
        <ele>156.27</ele>
        <time>2025-11-06T09:37:04Z</time>
      </trkpt>
      <trkpt lat="48.78967" lon="2.17808">
        <ele>156.11</ele>
        <time>2025-11-06T09:37:21Z</time>
      </trkpt>
      <trkpt lat="48.78948" lon="2.17819">
        <ele>155.17</ele>
        <time>2025-11-06T09:37:40Z</time>
      </trkpt>
      <trkpt lat="48.78937" lon="2.17828">
        <ele>155.75</ele>
        <time>2025-11-06T09:37:51Z</time>
      </trkpt>
      <trkpt lat="48.7893" lon="2.17837">
        <ele>155.47</ele>
        <time>2025-11-06T09:37:59Z</time>
      </trkpt>
      <trkpt lat="48.78913" lon="2.17852">
        <ele>154.04</ele>
        <time>2025-11-06T09:38:16Z</time>
      </trkpt>
      <trkpt lat="48.78898" lon="2.17867">
        <ele>153.38</ele>
        <time>2025-11-06T09:38:34Z</time>
      </trkpt>
      <trkpt lat="48.78881" lon="2.17876">
        <ele>152.65</ele>
        <time>2025-11-06T09:38:53Z</time>
      </trkpt>
      <trkpt lat="48.78873" lon="2.17886">
        <ele>152.46</ele>
        <time>2025-11-06T09:39:07Z</time>
      </trkpt>
      <trkpt lat="48.78856" lon="2.17894">
        <ele>153.43</ele>
        <time>2025-11-06T09:39:25Z</time>
      </trkpt>
      <trkpt lat="48.78854" lon="2.17893">
        <ele>153.18</ele>
        <time>2025-11-06T09:39:47Z</time>
      </trkpt>
      <trkpt lat="48.78854" lon="2.17893">
        <ele>153.19</ele>
        <time>2025-11-06T09:39:50Z</time>
      </trkpt>
      <trkpt lat="48.78854" lon="2.17895">
        <ele>152.72</ele>
        <time>2025-11-06T09:40:09Z</time>
      </trkpt>
      <trkpt lat="48.78855" lon="2.17896">
        <ele>153.17</ele>
        <time>2025-11-06T09:40:26Z</time>
      </trkpt>
      <trkpt lat="48.78852" lon="2.17908">
        <ele>153.19</ele>
        <time>2025-11-06T09:40:40Z</time>
      </trkpt>
      <trkpt lat="48.78848" lon="2.1792">
        <ele>153.47</ele>
        <time>2025-11-06T09:40:50Z</time>
      </trkpt>
      <trkpt lat="48.78846" lon="2.17928">
        <ele>153.28</ele>
        <time>2025-11-06T09:40:56Z</time>
      </trkpt>
      <trkpt lat="48.78841" lon="2.17955">
        <ele>153.65</ele>
        <time>2025-11-06T09:41:14Z</time>
      </trkpt>
      <trkpt lat="48.78843" lon="2.17961">
        <ele>154.25</ele>
        <time>2025-11-06T09:41:26Z</time>
      </trkpt>
      <trkpt lat="48.78844" lon="2.17962">
        <ele>153.81</ele>
        <time>2025-11-06T09:41:43Z</time>
      </trkpt>
      <trkpt lat="48.78842" lon="2.17961">
        <ele>153.61</ele>
        <time>2025-11-06T09:42:02Z</time>
      </trkpt>
      <trkpt lat="48.78841" lon="2.17962">
        <ele>153.52</ele>
        <time>2025-11-06T09:42:24Z</time>
      </trkpt>
      <trkpt lat="48.78838" lon="2.1796">
        <ele>153.5</ele>
        <time>2025-11-06T09:42:37Z</time>
      </trkpt>
      <trkpt lat="48.78838" lon="2.17974">
        <ele>154.33</ele>
        <time>2025-11-06T09:42:46Z</time>
      </trkpt>
      <trkpt lat="48.78833" lon="2.17991">
        <ele>153.06</ele>
        <time>2025-11-06T09:42:58Z</time>
      </trkpt>
      <trkpt lat="48.78832" lon="2.17992">
        <ele>153.05</ele>
        <time>2025-11-06T09:42:59Z</time>
      </trkpt>
      <trkpt lat="48.7883" lon="2.17999">
        <ele>154.32</ele>
        <time>2025-11-06T09:43:04Z</time>
      </trkpt>
      <trkpt lat="48.7883" lon="2.18015">
        <ele>155.59</ele>
        <time>2025-11-06T09:43:17Z</time>
      </trkpt>
      <trkpt lat="48.78844" lon="2.18017">
        <ele>156.57</ele>
        <time>2025-11-06T09:43:36Z</time>
      </trkpt>
      <trkpt lat="48.78856" lon="2.18026">
        <ele>155.52</ele>
        <time>2025-11-06T09:43:55Z</time>
      </trkpt>
      <trkpt lat="48.78866" lon="2.18031">
        <ele>155.27</ele>
        <time>2025-11-06T09:44:03Z</time>
      </trkpt>
      <trkpt lat="48.7888" lon="2.1804">
        <ele>155.13</ele>
        <time>2025-11-06T09:44:20Z</time>
      </trkpt>
      <trkpt lat="48.78897" lon="2.18058">
        <ele>153.97</ele>
        <time>2025-11-06T09:44:39Z</time>
      </trkpt>
      <trkpt lat="48.78919" lon="2.18072">
        <ele>153.84</ele>
        <time>2025-11-06T09:44:57Z</time>
      </trkpt>
      <trkpt lat="48.78934" lon="2.18083">
        <ele>152.96</ele>
        <time>2025-11-06T09:45:13Z</time>
      </trkpt>
      <trkpt lat="48.78945" lon="2.18093">
        <ele>152.82</ele>
        <time>2025-11-06T09:45:25Z</time>
      </trkpt>
      <trkpt lat="48.78971" lon="2.18106">
        <ele>152.91</ele>
        <time>2025-11-06T09:45:44Z</time>
      </trkpt>
      <trkpt lat="48.78986" lon="2.18118">
        <ele>152.9</ele>
        <time>2025-11-06T09:46:03Z</time>
      </trkpt>
      <trkpt lat="48.78993" lon="2.18135">
        <ele>152.35</ele>
        <time>2025-11-06T09:46:18Z</time>
      </trkpt>
      <trkpt lat="48.78998" lon="2.18143">
        <ele>152.84</ele>
        <time>2025-11-06T09:46:24Z</time>
      </trkpt>
      <trkpt lat="48.7901" lon="2.18161">
        <ele>153.09</ele>
        <time>2025-11-06T09:46:38Z</time>
      </trkpt>
      <trkpt lat="48.79032" lon="2.18181">
        <ele>153.05</ele>
        <time>2025-11-06T09:46:55Z</time>
      </trkpt>
      <trkpt lat="48.79041" lon="2.182">
        <ele>153.26</ele>
        <time>2025-11-06T09:47:14Z</time>
      </trkpt>
      <trkpt lat="48.79052" lon="2.18213">
        <ele>153.07</ele>
        <time>2025-11-06T09:47:30Z</time>
      </trkpt>
      <trkpt lat="48.79067" lon="2.18236">
        <ele>153.01</ele>
        <time>2025-11-06T09:47:50Z</time>
      </trkpt>
      <trkpt lat="48.79078" lon="2.18253">
        <ele>153.13</ele>
        <time>2025-11-06T09:48:06Z</time>
      </trkpt>
      <trkpt lat="48.79087" lon="2.1827">
        <ele>153.14</ele>
        <time>2025-11-06T09:48:20Z</time>
      </trkpt>
      <trkpt lat="48.791" lon="2.18288">
        <ele>152.96</ele>
        <time>2025-11-06T09:48:33Z</time>
      </trkpt>
      <trkpt lat="48.79113" lon="2.18299">
        <ele>153.29</ele>
        <time>2025-11-06T09:48:47Z</time>
      </trkpt>
      <trkpt lat="48.79115" lon="2.18303">
        <ele>153.04</ele>
        <time>2025-11-06T09:48:59Z</time>
      </trkpt>
      <trkpt lat="48.79109" lon="2.1831">
        <ele>153.21</ele>
        <time>2025-11-06T09:49:13Z</time>
      </trkpt>
      <trkpt lat="48.791" lon="2.18322">
        <ele>152.41</ele>
        <time>2025-11-06T09:49:23Z</time>
      </trkpt>
      <trkpt lat="48.79097" lon="2.18329">
        <ele>152.26</ele>
        <time>2025-11-06T09:49:38Z</time>
      </trkpt>
      <trkpt lat="48.79093" lon="2.18333">
        <ele>152.49</ele>
        <time>2025-11-06T09:49:43Z</time>
      </trkpt>
      <trkpt lat="48.79077" lon="2.18359">
        <ele>152.08</ele>
        <time>2025-11-06T09:50:02Z</time>
      </trkpt>
      <trkpt lat="48.79067" lon="2.18383">
        <ele>152.51</ele>
        <time>2025-11-06T09:50:20Z</time>
      </trkpt>
      <trkpt lat="48.79054" lon="2.18401">
        <ele>152.31</ele>
        <time>2025-11-06T09:50:38Z</time>
      </trkpt>
      <trkpt lat="48.79043" lon="2.18421">
        <ele>152.37</ele>
        <time>2025-11-06T09:50:56Z</time>
      </trkpt>
      <trkpt lat="48.79032" lon="2.18433">
        <ele>151.94</ele>
        <time>2025-11-06T09:51:14Z</time>
      </trkpt>
      <trkpt lat="48.79022" lon="2.18458">
        <ele>151.77</ele>
        <time>2025-11-06T09:51:27Z</time>
      </trkpt>
      <trkpt lat="48.79008" lon="2.18478">
        <ele>151.83</ele>
        <time>2025-11-06T09:51:45Z</time>
      </trkpt>
      <trkpt lat="48.78996" lon="2.18494">
        <ele>151.74</ele>
        <time>2025-11-06T09:51:59Z</time>
      </trkpt>
      <trkpt lat="48.78995" lon="2.18496">
        <ele>151.73</ele>
        <time>2025-11-06T09:52:00Z</time>
      </trkpt>
      <trkpt lat="48.78984" lon="2.18512">
        <ele>150.86</ele>
        <time>2025-11-06T09:52:15Z</time>
      </trkpt>
      <trkpt lat="48.78979" lon="2.1852">
        <ele>151.06</ele>
        <time>2025-11-06T09:52:21Z</time>
      </trkpt>
      <trkpt lat="48.7897" lon="2.18534">
        <ele>151.14</ele>
        <time>2025-11-06T09:52:33Z</time>
      </trkpt>
      <trkpt lat="48.78961" lon="2.18547">
        <ele>151.72</ele>
        <time>2025-11-06T09:52:45Z</time>
      </trkpt>
      <trkpt lat="48.78954" lon="2.18558">
        <ele>150.99</ele>
        <time>2025-11-06T09:52:54Z</time>
      </trkpt>
      <trkpt lat="48.78945" lon="2.18572">
        <ele>150.98</ele>
        <time>2025-11-06T09:53:07Z</time>
      </trkpt>
      <trkpt lat="48.78938" lon="2.18579">
        <ele>151.2</ele>
        <time>2025-11-06T09:53:13Z</time>
      </trkpt>
      <trkpt lat="48.78931" lon="2.18592">
        <ele>151.83</ele>
        <time>2025-11-06T09:53:22Z</time>
      </trkpt>
      <trkpt lat="48.78925" lon="2.18604">
        <ele>150.89</ele>
        <time>2025-11-06T09:53:29Z</time>
      </trkpt>
      <trkpt lat="48.78917" lon="2.18633">
        <ele>150.73</ele>
        <time>2025-11-06T09:53:48Z</time>
      </trkpt>
      <trkpt lat="48.78919" lon="2.1865">
        <ele>150.35</ele>
        <time>2025-11-06T09:54:00Z</time>
      </trkpt>
      <trkpt lat="48.78937" lon="2.18673">
        <ele>150.1</ele>
        <time>2025-11-06T09:54:18Z</time>
      </trkpt>
      <trkpt lat="48.78937" lon="2.18674">
        <ele>150.65</ele>
        <time>2025-11-06T09:54:19Z</time>
      </trkpt>
      <trkpt lat="48.78946" lon="2.18694">
        <ele>149.77</ele>
        <time>2025-11-06T09:54:33Z</time>
      </trkpt>
      <trkpt lat="48.78954" lon="2.18717">
        <ele>149.25</ele>
        <time>2025-11-06T09:54:50Z</time>
      </trkpt>
      <trkpt lat="48.7896" lon="2.18732">
        <ele>148.83</ele>
        <time>2025-11-06T09:55:00Z</time>
      </trkpt>
      <trkpt lat="48.78969" lon="2.18755">
        <ele>147.4</ele>
        <time>2025-11-06T09:55:15Z</time>
      </trkpt>
      <trkpt lat="48.78968" lon="2.18766">
        <ele>146.83</ele>
        <time>2025-11-06T09:55:25Z</time>
      </trkpt>
      <trkpt lat="48.78966" lon="2.1877">
        <ele>146.87</ele>
        <time>2025-11-06T09:55:31Z</time>
      </trkpt>
      <trkpt lat="48.78958" lon="2.18783">
        <ele>146.15</ele>
        <time>2025-11-06T09:55:49Z</time>
      </trkpt>
      <trkpt lat="48.78958" lon="2.18786">
        <ele>146.41</ele>
        <time>2025-11-06T09:55:56Z</time>
      </trkpt>
      <trkpt lat="48.78956" lon="2.18796">
        <ele>147.02</ele>
        <time>2025-11-06T09:56:09Z</time>
      </trkpt>
      <trkpt lat="48.78952" lon="2.18813">
        <ele>146.47</ele>
        <time>2025-11-06T09:56:21Z</time>
      </trkpt>
      <trkpt lat="48.78943" lon="2.18838">
        <ele>146.37</ele>
        <time>2025-11-06T09:56:30Z</time>
      </trkpt>
      <trkpt lat="48.78939" lon="2.18863">
        <ele>146.74</ele>
        <time>2025-11-06T09:56:42Z</time>
      </trkpt>
      <trkpt lat="48.78933" lon="2.18887">
        <ele>146.54</ele>
        <time>2025-11-06T09:56:57Z</time>
      </trkpt>
      <trkpt lat="48.78922" lon="2.18914">
        <ele>146.9</ele>
        <time>2025-11-06T09:57:15Z</time>
      </trkpt>
      <trkpt lat="48.78911" lon="2.18935">
        <ele>146.17</ele>
        <time>2025-11-06T09:57:32Z</time>
      </trkpt>
      <trkpt lat="48.78896" lon="2.18961">
        <ele>147.09</ele>
        <time>2025-11-06T09:57:49Z</time>
      </trkpt>
      <trkpt lat="48.78885" lon="2.18973">
        <ele>146.09</ele>
        <time>2025-11-06T09:58:02Z</time>
      </trkpt>
      <trkpt lat="48.78877" lon="2.18989">
        <ele>146.06</ele>
        <time>2025-11-06T09:58:22Z</time>
      </trkpt>
      <trkpt lat="48.78874" lon="2.18992">
        <ele>145.81</ele>
        <time>2025-11-06T09:58:29Z</time>
      </trkpt>
      <trkpt lat="48.78866" lon="2.19005">
        <ele>145.98</ele>
        <time>2025-11-06T09:58:40Z</time>
      </trkpt>
      <trkpt lat="48.78859" lon="2.19022">
        <ele>146.13</ele>
        <time>2025-11-06T09:58:50Z</time>
      </trkpt>
      <trkpt lat="48.78854" lon="2.19038">
        <ele>145.56</ele>
        <time>2025-11-06T09:58:58Z</time>
      </trkpt>
      <trkpt lat="48.78855" lon="2.1906">
        <ele>145.08</ele>
        <time>2025-11-06T09:59:11Z</time>
      </trkpt>
      <trkpt lat="48.78855" lon="2.19073">
        <ele>145.42</ele>
        <time>2025-11-06T09:59:21Z</time>
      </trkpt>
      <trkpt lat="48.78853" lon="2.19089">
        <ele>145.2</ele>
        <time>2025-11-06T09:59:34Z</time>
      </trkpt>
      <trkpt lat="48.78852" lon="2.19113">
        <ele>144.75</ele>
        <time>2025-11-06T09:59:48Z</time>
      </trkpt>
      <trkpt lat="48.7885" lon="2.19111">
        <ele>144.39</ele>
        <time>2025-11-06T09:59:55Z</time>
      </trkpt>
      <trkpt lat="48.78846" lon="2.19118">
        <ele>144.58</ele>
        <time>2025-11-06T10:00:12Z</time>
      </trkpt>
      <trkpt lat="48.78843" lon="2.19133">
        <ele>144.88</ele>
        <time>2025-11-06T10:00:26Z</time>
      </trkpt>
      <trkpt lat="48.78848" lon="2.19159">
        <ele>144.28</ele>
        <time>2025-11-06T10:00:42Z</time>
      </trkpt>
      <trkpt lat="48.78853" lon="2.19182">
        <ele>143.71</ele>
        <time>2025-11-06T10:00:54Z</time>
      </trkpt>
      <trkpt lat="48.78858" lon="2.19201">
        <ele>142.79</ele>
        <time>2025-11-06T10:01:06Z</time>
      </trkpt>
      <trkpt lat="48.78863" lon="2.1921">
        <ele>143.45</ele>
        <time>2025-11-06T10:01:15Z</time>
      </trkpt>
      <trkpt lat="48.78868" lon="2.19245">
        <ele>141.9</ele>
        <time>2025-11-06T10:01:34Z</time>
      </trkpt>
      <trkpt lat="48.78871" lon="2.19255">
        <ele>141.52</ele>
        <time>2025-11-06T10:01:45Z</time>
      </trkpt>
      <trkpt lat="48.78876" lon="2.19276">
        <ele>140.8</ele>
        <time>2025-11-06T10:01:59Z</time>
      </trkpt>
      <trkpt lat="48.78884" lon="2.19297">
        <ele>139.51</ele>
        <time>2025-11-06T10:02:14Z</time>
      </trkpt>
      <trkpt lat="48.78882" lon="2.19313">
        <ele>139.04</ele>
        <time>2025-11-06T10:02:24Z</time>
      </trkpt>
      <trkpt lat="48.78874" lon="2.19347">
        <ele>139.84</ele>
        <time>2025-11-06T10:02:43Z</time>
      </trkpt>
      <trkpt lat="48.78865" lon="2.1937">
        <ele>140.41</ele>
        <time>2025-11-06T10:02:59Z</time>
      </trkpt>
      <trkpt lat="48.78859" lon="2.19403">
        <ele>139.96</ele>
        <time>2025-11-06T10:03:16Z</time>
      </trkpt>
      <trkpt lat="48.78851" lon="2.19422">
        <ele>140.7</ele>
        <time>2025-11-06T10:03:34Z</time>
      </trkpt>
      <trkpt lat="48.78845" lon="2.19437">
        <ele>140.11</ele>
        <time>2025-11-06T10:03:45Z</time>
      </trkpt>
      <trkpt lat="48.78837" lon="2.19453">
        <ele>140.03</ele>
        <time>2025-11-06T10:04:00Z</time>
      </trkpt>
      <trkpt lat="48.7883" lon="2.19471">
        <ele>140.14</ele>
        <time>2025-11-06T10:04:17Z</time>
      </trkpt>
      <trkpt lat="48.78825" lon="2.19495">
        <ele>140.09</ele>
        <time>2025-11-06T10:04:34Z</time>
      </trkpt>
      <trkpt lat="48.7882" lon="2.19511">
        <ele>139.83</ele>
        <time>2025-11-06T10:04:47Z</time>
      </trkpt>
      <trkpt lat="48.78815" lon="2.19525">
        <ele>139.91</ele>
        <time>2025-11-06T10:04:59Z</time>
      </trkpt>
      <trkpt lat="48.7881" lon="2.19544">
        <ele>139.71</ele>
        <time>2025-11-06T10:05:21Z</time>
      </trkpt>
      <trkpt lat="48.78804" lon="2.19567">
        <ele>138.92</ele>
        <time>2025-11-06T10:05:35Z</time>
      </trkpt>
      <trkpt lat="48.78801" lon="2.19577">
        <ele>139.25</ele>
        <time>2025-11-06T10:05:42Z</time>
      </trkpt>
      <trkpt lat="48.78793" lon="2.196">
        <ele>138.26</ele>
        <time>2025-11-06T10:05:57Z</time>
      </trkpt>
      <trkpt lat="48.78781" lon="2.19626">
        <ele>136.96</ele>
        <time>2025-11-06T10:06:15Z</time>
      </trkpt>
      <trkpt lat="48.78776" lon="2.19648">
        <ele>135.66</ele>
        <time>2025-11-06T10:06:31Z</time>
      </trkpt>
      <trkpt lat="48.78769" lon="2.19672">
        <ele>134.07</ele>
        <time>2025-11-06T10:06:48Z</time>
      </trkpt>
      <trkpt lat="48.78758" lon="2.19692">
        <ele>132.1</ele>
        <time>2025-11-06T10:07:07Z</time>
      </trkpt>
      <trkpt lat="48.78752" lon="2.19709">
        <ele>130.22</ele>
        <time>2025-11-06T10:07:20Z</time>
      </trkpt>
      <trkpt lat="48.78746" lon="2.19723">
        <ele>128.63</ele>
        <time>2025-11-06T10:07:29Z</time>
      </trkpt>
      <trkpt lat="48.7874" lon="2.19746">
        <ele>126.43</ele>
        <time>2025-11-06T10:07:50Z</time>
      </trkpt>
      <trkpt lat="48.78733" lon="2.19761">
        <ele>124.64</ele>
        <time>2025-11-06T10:08:02Z</time>
      </trkpt>
      <trkpt lat="48.78731" lon="2.19777">
        <ele>123.96</ele>
        <time>2025-11-06T10:08:17Z</time>
      </trkpt>
      <trkpt lat="48.7873" lon="2.19784">
        <ele>124.05</ele>
        <time>2025-11-06T10:08:38Z</time>
      </trkpt>
      <trkpt lat="48.7873" lon="2.19787">
        <ele>123.94</ele>
        <time>2025-11-06T10:08:59Z</time>
      </trkpt>
      <trkpt lat="48.78726" lon="2.19796">
        <ele>124.6</ele>
        <time>2025-11-06T10:09:12Z</time>
      </trkpt>
      <trkpt lat="48.78715" lon="2.19805">
        <ele>124.21</ele>
        <time>2025-11-06T10:09:27Z</time>
      </trkpt>
      <trkpt lat="48.78706" lon="2.19818">
        <ele>123.86</ele>
        <time>2025-11-06T10:09:39Z</time>
      </trkpt>
      <trkpt lat="48.78702" lon="2.19822">
        <ele>124.14</ele>
        <time>2025-11-06T10:09:44Z</time>
      </trkpt>
      <trkpt lat="48.78688" lon="2.19841">
        <ele>124.49</ele>
        <time>2025-11-06T10:10:01Z</time>
      </trkpt>
      <trkpt lat="48.78675" lon="2.19854">
        <ele>124.58</ele>
        <time>2025-11-06T10:10:17Z</time>
      </trkpt>
      <trkpt lat="48.78661" lon="2.19867">
        <ele>124.54</ele>
        <time>2025-11-06T10:10:34Z</time>
      </trkpt>
      <trkpt lat="48.78645" lon="2.19883">
        <ele>124.19</ele>
        <time>2025-11-06T10:10:53Z</time>
      </trkpt>
      <trkpt lat="48.78629" lon="2.19897">
        <ele>124.01</ele>
        <time>2025-11-06T10:11:08Z</time>
      </trkpt>
      <trkpt lat="48.78619" lon="2.19901">
        <ele>123.34</ele>
        <time>2025-11-06T10:11:25Z</time>
      </trkpt>
      <trkpt lat="48.78626" lon="2.19932">
        <ele>122.67</ele>
        <time>2025-11-06T10:11:43Z</time>
      </trkpt>
      <trkpt lat="48.78629" lon="2.19945">
        <ele>122.41</ele>
        <time>2025-11-06T10:11:51Z</time>
      </trkpt>
      <trkpt lat="48.78635" lon="2.19968">
        <ele>121.7</ele>
        <time>2025-11-06T10:12:07Z</time>
      </trkpt>
      <trkpt lat="48.78641" lon="2.19994">
        <ele>121.42</ele>
        <time>2025-11-06T10:12:26Z</time>
      </trkpt>
      <trkpt lat="48.78656" lon="2.2002">
        <ele>120.49</ele>
        <time>2025-11-06T10:12:43Z</time>
      </trkpt>
      <trkpt lat="48.78662" lon="2.20034">
        <ele>119.55</ele>
        <time>2025-11-06T10:12:54Z</time>
      </trkpt>
      <trkpt lat="48.78668" lon="2.20058">
        <ele>118.32</ele>
        <time>2025-11-06T10:13:10Z</time>
      </trkpt>
      <trkpt lat="48.78676" lon="2.20074">
        <ele>117.11</ele>
        <time>2025-11-06T10:13:26Z</time>
      </trkpt>
      <trkpt lat="48.7868" lon="2.20088">
        <ele>116.31</ele>
        <time>2025-11-06T10:13:42Z</time>
      </trkpt>
      <trkpt lat="48.78679" lon="2.20093">
        <ele>115.44</ele>
        <time>2025-11-06T10:13:55Z</time>
      </trkpt>
      <trkpt lat="48.78684" lon="2.20108">
        <ele>114.26</ele>
        <time>2025-11-06T10:14:09Z</time>
      </trkpt>
      <trkpt lat="48.7869" lon="2.2012">
        <ele>113.27</ele>
        <time>2025-11-06T10:14:24Z</time>
      </trkpt>
      <trkpt lat="48.78695" lon="2.20143">
        <ele>111.25</ele>
        <time>2025-11-06T10:14:41Z</time>
      </trkpt>
      <trkpt lat="48.78699" lon="2.20163">
        <ele>109.53</ele>
        <time>2025-11-06T10:14:56Z</time>
      </trkpt>
      <trkpt lat="48.78708" lon="2.2018">
        <ele>107.97</ele>
        <time>2025-11-06T10:15:10Z</time>
      </trkpt>
      <trkpt lat="48.78723" lon="2.202">
        <ele>106.49</ele>
        <time>2025-11-06T10:15:28Z</time>
      </trkpt>
      <trkpt lat="48.78731" lon="2.20219">
        <ele>106.38</ele>
        <time>2025-11-06T10:15:42Z</time>
      </trkpt>
      <trkpt lat="48.78741" lon="2.20237">
        <ele>106.38</ele>
        <time>2025-11-06T10:15:58Z</time>
      </trkpt>
      <trkpt lat="48.78752" lon="2.20255">
        <ele>106.64</ele>
        <time>2025-11-06T10:16:13Z</time>
      </trkpt>
      <trkpt lat="48.78759" lon="2.20266">
        <ele>107.08</ele>
        <time>2025-11-06T10:16:22Z</time>
      </trkpt>
      <trkpt lat="48.78761" lon="2.20269">
        <ele>107.3</ele>
        <time>2025-11-06T10:16:24Z</time>
      </trkpt>
      <trkpt lat="48.78768" lon="2.20284">
        <ele>106.4</ele>
        <time>2025-11-06T10:16:37Z</time>
      </trkpt>
      <trkpt lat="48.78774" lon="2.20296">
        <ele>105.05</ele>
        <time>2025-11-06T10:16:53Z</time>
      </trkpt>
      <trkpt lat="48.78777" lon="2.20304">
        <ele>104.36</ele>
        <time>2025-11-06T10:17:03Z</time>
      </trkpt>
      <trkpt lat="48.7879" lon="2.20324">
        <ele>102.8</ele>
        <time>2025-11-06T10:17:17Z</time>
      </trkpt>
      <trkpt lat="48.78801" lon="2.20336">
        <ele>101.93</ele>
        <time>2025-11-06T10:17:33Z</time>
      </trkpt>
      <trkpt lat="48.7882" lon="2.20351">
        <ele>101.47</ele>
        <time>2025-11-06T10:17:49Z</time>
      </trkpt>
      <trkpt lat="48.78842" lon="2.20365">
        <ele>100.88</ele>
        <time>2025-11-06T10:18:07Z</time>
      </trkpt>
      <trkpt lat="48.78855" lon="2.20384">
        <ele>100.51</ele>
        <time>2025-11-06T10:18:23Z</time>
      </trkpt>
      <trkpt lat="48.7886" lon="2.20386">
        <ele>100.57</ele>
        <time>2025-11-06T10:18:26Z</time>
      </trkpt>
      <trkpt lat="48.78876" lon="2.20398">
        <ele>100.11</ele>
        <time>2025-11-06T10:18:42Z</time>
      </trkpt>
      <trkpt lat="48.78901" lon="2.20398">
        <ele>98.75</ele>
        <time>2025-11-06T10:19:00Z</time>
      </trkpt>
      <trkpt lat="48.78913" lon="2.20402">
        <ele>98.51</ele>
        <time>2025-11-06T10:19:19Z</time>
      </trkpt>
      <trkpt lat="48.78915" lon="2.20401">
        <ele>98.44</ele>
        <time>2025-11-06T10:19:20Z</time>
      </trkpt>
      <trkpt lat="48.78934" lon="2.20394">
        <ele>98.05</ele>
        <time>2025-11-06T10:19:37Z</time>
      </trkpt>
      <trkpt lat="48.78945" lon="2.20396">
        <ele>97.44</ele>
        <time>2025-11-06T10:19:50Z</time>
      </trkpt>
      <trkpt lat="48.78958" lon="2.20403">
        <ele>96.81</ele>
        <time>2025-11-06T10:20:03Z</time>
      </trkpt>
      <trkpt lat="48.78959" lon="2.20403">
        <ele>96.89</ele>
        <time>2025-11-06T10:20:06Z</time>
      </trkpt>
      <trkpt lat="48.7897" lon="2.20398">
        <ele>96.89</ele>
        <time>2025-11-06T10:20:22Z</time>
      </trkpt>
      <trkpt lat="48.78996" lon="2.20396">
        <ele>95.89</ele>
        <time>2025-11-06T10:20:37Z</time>
      </trkpt>
      <trkpt lat="48.79014" lon="2.204">
        <ele>95.64</ele>
        <time>2025-11-06T10:20:53Z</time>
      </trkpt>
      <trkpt lat="48.79024" lon="2.20403">
        <ele>94.72</ele>
        <time>2025-11-06T10:21:05Z</time>
      </trkpt>
      <trkpt lat="48.79042" lon="2.20407">
        <ele>95.16</ele>
        <time>2025-11-06T10:21:19Z</time>
      </trkpt>
      <trkpt lat="48.79053" lon="2.20412">
        <ele>94.96</ele>
        <time>2025-11-06T10:21:33Z</time>
      </trkpt>
      <trkpt lat="48.79069" lon="2.20416">
        <ele>94.53</ele>
        <time>2025-11-06T10:21:46Z</time>
      </trkpt>
      <trkpt lat="48.79087" lon="2.20424">
        <ele>94.25</ele>
        <time>2025-11-06T10:22:03Z</time>
      </trkpt>
      <trkpt lat="48.79103" lon="2.2043">
        <ele>93.65</ele>
        <time>2025-11-06T10:22:19Z</time>
      </trkpt>
      <trkpt lat="48.79111" lon="2.20441">
        <ele>93.3</ele>
        <time>2025-11-06T10:22:32Z</time>
      </trkpt>
      <trkpt lat="48.79128" lon="2.20452">
        <ele>94.03</ele>
        <time>2025-11-06T10:22:45Z</time>
      </trkpt>
      <trkpt lat="48.79129" lon="2.20452">
        <ele>93.99</ele>
        <time>2025-11-06T10:22:47Z</time>
      </trkpt>
      <trkpt lat="48.79133" lon="2.20454">
        <ele>94.16</ele>
        <time>2025-11-06T10:22:51Z</time>
      </trkpt>
      <trkpt lat="48.79136" lon="2.20456">
        <ele>94.37</ele>
        <time>2025-11-06T10:23:08Z</time>
      </trkpt>
      <trkpt lat="48.79141" lon="2.20464">
        <ele>94.02</ele>
        <time>2025-11-06T10:23:17Z</time>
      </trkpt>
      <trkpt lat="48.79145" lon="2.20467">
        <ele>94.3</ele>
        <time>2025-11-06T10:23:24Z</time>
      </trkpt>
      <trkpt lat="48.79157" lon="2.2048">
        <ele>94.27</ele>
        <time>2025-11-06T10:23:40Z</time>
      </trkpt>
      <trkpt lat="48.79169" lon="2.20481">
        <ele>93.69</ele>
        <time>2025-11-06T10:23:56Z</time>
      </trkpt>
      <trkpt lat="48.79179" lon="2.20481">
        <ele>94.34</ele>
        <time>2025-11-06T10:24:15Z</time>
      </trkpt>
      <trkpt lat="48.79186" lon="2.20484">
        <ele>94.57</ele>
        <time>2025-11-06T10:24:29Z</time>
      </trkpt>
      <trkpt lat="48.79196" lon="2.20485">
        <ele>94.27</ele>
        <time>2025-11-06T10:24:39Z</time>
      </trkpt>
      <trkpt lat="48.79214" lon="2.20485">
        <ele>94.05</ele>
        <time>2025-11-06T10:24:51Z</time>
      </trkpt>
      <trkpt lat="48.79231" lon="2.20477">
        <ele>93.6</ele>
        <time>2025-11-06T10:25:02Z</time>
      </trkpt>
      <trkpt lat="48.79245" lon="2.20468">
        <ele>93.51</ele>
        <time>2025-11-06T10:25:13Z</time>
      </trkpt>
      <trkpt lat="48.79246" lon="2.20463">
        <ele>94.15</ele>
        <time>2025-11-06T10:25:14Z</time>
      </trkpt>
      <trkpt lat="48.79252" lon="2.20459">
        <ele>93.23</ele>
        <time>2025-11-06T10:25:19Z</time>
      </trkpt>
      <trkpt lat="48.79262" lon="2.20458">
        <ele>92.94</ele>
        <time>2025-11-06T10:25:35Z</time>
      </trkpt>
      <trkpt lat="48.79267" lon="2.20447">
        <ele>94</ele>
        <time>2025-11-06T10:25:47Z</time>
      </trkpt>
      <trkpt lat="48.79279" lon="2.20439">
        <ele>93.28</ele>
        <time>2025-11-06T10:25:59Z</time>
      </trkpt>
      <trkpt lat="48.79286" lon="2.2043">
        <ele>93.08</ele>
        <time>2025-11-06T10:26:13Z</time>
      </trkpt>
      <trkpt lat="48.79298" lon="2.20422">
        <ele>93.59</ele>
        <time>2025-11-06T10:26:32Z</time>
      </trkpt>
      <trkpt lat="48.79296" lon="2.20421">
        <ele>95.32</ele>
        <time>2025-11-06T10:31:24Z</time>
      </trkpt>
      <trkpt lat="48.79307" lon="2.20418">
        <ele>96.35</ele>
        <time>2025-11-06T10:33:31Z</time>
      </trkpt>
      <trkpt lat="48.79316" lon="2.20407">
        <ele>96.52</ele>
        <time>2025-11-06T10:33:47Z</time>
      </trkpt>
      <trkpt lat="48.79326" lon="2.20392">
        <ele>96.18</ele>
        <time>2025-11-06T10:34:03Z</time>
      </trkpt>
      <trkpt lat="48.79333" lon="2.20386">
        <ele>96.34</ele>
        <time>2025-11-06T10:34:13Z</time>
      </trkpt>
      <trkpt lat="48.79342" lon="2.2037">
        <ele>97.06</ele>
        <time>2025-11-06T10:34:25Z</time>
      </trkpt>
      <trkpt lat="48.79352" lon="2.20356">
        <ele>97.19</ele>
        <time>2025-11-06T10:34:40Z</time>
      </trkpt>
      <trkpt lat="48.79369" lon="2.2034">
        <ele>97.26</ele>
        <time>2025-11-06T10:34:54Z</time>
      </trkpt>
      <trkpt lat="48.79386" lon="2.20323">
        <ele>97.01</ele>
        <time>2025-11-06T10:35:11Z</time>
      </trkpt>
      <trkpt lat="48.79404" lon="2.20305">
        <ele>97.57</ele>
        <time>2025-11-06T10:35:30Z</time>
      </trkpt>
      <trkpt lat="48.79414" lon="2.20299">
        <ele>98.29</ele>
        <time>2025-11-06T10:35:45Z</time>
      </trkpt>
      <trkpt lat="48.79422" lon="2.20315">
        <ele>99.03</ele>
        <time>2025-11-06T10:36:06Z</time>
      </trkpt>
      <trkpt lat="48.7943" lon="2.20332">
        <ele>100.01</ele>
        <time>2025-11-06T10:36:22Z</time>
      </trkpt>
      <trkpt lat="48.79436" lon="2.20356">
        <ele>101.9</ele>
        <time>2025-11-06T10:36:38Z</time>
      </trkpt>
      <trkpt lat="48.79441" lon="2.20385">
        <ele>104.86</ele>
        <time>2025-11-06T10:36:56Z</time>
      </trkpt>
      <trkpt lat="48.79442" lon="2.204">
        <ele>106.89</ele>
        <time>2025-11-06T10:37:15Z</time>
      </trkpt>
      <trkpt lat="48.79444" lon="2.20421">
        <ele>108.42</ele>
        <time>2025-11-06T10:37:33Z</time>
      </trkpt>
      <trkpt lat="48.79449" lon="2.20449">
        <ele>110.48</ele>
        <time>2025-11-06T10:37:51Z</time>
      </trkpt>
      <trkpt lat="48.79451" lon="2.2047">
        <ele>111.96</ele>
        <time>2025-11-06T10:38:08Z</time>
      </trkpt>
      <trkpt lat="48.79452" lon="2.20474">
        <ele>112.82</ele>
        <time>2025-11-06T10:38:11Z</time>
      </trkpt>
      <trkpt lat="48.79448" lon="2.20492">
        <ele>114.29</ele>
        <time>2025-11-06T10:38:24Z</time>
      </trkpt>
      <trkpt lat="48.7944" lon="2.20521">
        <ele>115.3</ele>
        <time>2025-11-06T10:38:43Z</time>
      </trkpt>
      <trkpt lat="48.79436" lon="2.20545">
        <ele>116.2</ele>
        <time>2025-11-06T10:38:59Z</time>
      </trkpt>
      <trkpt lat="48.79435" lon="2.20561">
        <ele>117.26</ele>
        <time>2025-11-06T10:39:16Z</time>
      </trkpt>
      <trkpt lat="48.79437" lon="2.20576">
        <ele>117.73</ele>
        <time>2025-11-06T10:39:29Z</time>
      </trkpt>
      <trkpt lat="48.79438" lon="2.20592">
        <ele>117.86</ele>
        <time>2025-11-06T10:39:39Z</time>
      </trkpt>
      <trkpt lat="48.7944" lon="2.20606">
        <ele>117.54</ele>
        <time>2025-11-06T10:39:49Z</time>
      </trkpt>
      <trkpt lat="48.79441" lon="2.20625">
        <ele>118.33</ele>
        <time>2025-11-06T10:40:03Z</time>
      </trkpt>
      <trkpt lat="48.79439" lon="2.2065">
        <ele>119.57</ele>
        <time>2025-11-06T10:40:20Z</time>
      </trkpt>
      <trkpt lat="48.79436" lon="2.20674">
        <ele>120.68</ele>
        <time>2025-11-06T10:40:39Z</time>
      </trkpt>
      <trkpt lat="48.79434" lon="2.207">
        <ele>121.5</ele>
        <time>2025-11-06T10:40:56Z</time>
      </trkpt>
      <trkpt lat="48.79431" lon="2.20725">
        <ele>123.14</ele>
        <time>2025-11-06T10:41:15Z</time>
      </trkpt>
      <trkpt lat="48.79428" lon="2.20754">
        <ele>125.07</ele>
        <time>2025-11-06T10:41:33Z</time>
      </trkpt>
      <trkpt lat="48.79419" lon="2.20776">
        <ele>125.93</ele>
        <time>2025-11-06T10:41:48Z</time>
      </trkpt>
      <trkpt lat="48.79408" lon="2.20792">
        <ele>127.05</ele>
        <time>2025-11-06T10:42:02Z</time>
      </trkpt>
      <trkpt lat="48.79392" lon="2.208">
        <ele>127.83</ele>
        <time>2025-11-06T10:42:19Z</time>
      </trkpt>
      <trkpt lat="48.7938" lon="2.20806">
        <ele>128.9</ele>
        <time>2025-11-06T10:42:35Z</time>
      </trkpt>
      <trkpt lat="48.79372" lon="2.20805">
        <ele>129.39</ele>
        <time>2025-11-06T10:42:52Z</time>
      </trkpt>
      <trkpt lat="48.79355" lon="2.20816">
        <ele>130.84</ele>
        <time>2025-11-06T10:43:12Z</time>
      </trkpt>
      <trkpt lat="48.79342" lon="2.20828">
        <ele>132.03</ele>
        <time>2025-11-06T10:43:29Z</time>
      </trkpt>
      <trkpt lat="48.79327" lon="2.20839">
        <ele>133.54</ele>
        <time>2025-11-06T10:43:48Z</time>
      </trkpt>
      <trkpt lat="48.79318" lon="2.20848">
        <ele>133.69</ele>
        <time>2025-11-06T10:44:02Z</time>
      </trkpt>
      <trkpt lat="48.79309" lon="2.20865">
        <ele>134.99</ele>
        <time>2025-11-06T10:44:15Z</time>
      </trkpt>
      <trkpt lat="48.79304" lon="2.20886">
        <ele>136.23</ele>
        <time>2025-11-06T10:44:31Z</time>
      </trkpt>
      <trkpt lat="48.79305" lon="2.20901">
        <ele>136.29</ele>
        <time>2025-11-06T10:44:49Z</time>
      </trkpt>
      <trkpt lat="48.79308" lon="2.20914">
        <ele>136.39</ele>
        <time>2025-11-06T10:45:03Z</time>
      </trkpt>
      <trkpt lat="48.79315" lon="2.20927">
        <ele>136.66</ele>
        <time>2025-11-06T10:45:18Z</time>
      </trkpt>
      <trkpt lat="48.79328" lon="2.20942">
        <ele>137.09</ele>
        <time>2025-11-06T10:45:36Z</time>
      </trkpt>
      <trkpt lat="48.79342" lon="2.20954">
        <ele>137.08</ele>
        <time>2025-11-06T10:45:52Z</time>
      </trkpt>
      <trkpt lat="48.79355" lon="2.20962">
        <ele>137.46</ele>
        <time>2025-11-06T10:46:07Z</time>
      </trkpt>
      <trkpt lat="48.79359" lon="2.20965">
        <ele>137.45</ele>
        <time>2025-11-06T10:46:10Z</time>
      </trkpt>
      <trkpt lat="48.79368" lon="2.20974">
        <ele>137.94</ele>
        <time>2025-11-06T10:46:21Z</time>
      </trkpt>
      <trkpt lat="48.79379" lon="2.20972">
        <ele>137.88</ele>
        <time>2025-11-06T10:46:32Z</time>
      </trkpt>
      <trkpt lat="48.79394" lon="2.2096">
        <ele>137.12</ele>
        <time>2025-11-06T10:46:47Z</time>
      </trkpt>
      <trkpt lat="48.79396" lon="2.20958">
        <ele>136.77</ele>
        <time>2025-11-06T10:46:49Z</time>
      </trkpt>
      <trkpt lat="48.7941" lon="2.20937">
        <ele>136.83</ele>
        <time>2025-11-06T10:47:06Z</time>
      </trkpt>
      <trkpt lat="48.79416" lon="2.20916">
        <ele>136.31</ele>
        <time>2025-11-06T10:47:23Z</time>
      </trkpt>
      <trkpt lat="48.79417" lon="2.20912">
        <ele>136.02</ele>
        <time>2025-11-06T10:47:25Z</time>
      </trkpt>
      <trkpt lat="48.79422" lon="2.20892">
        <ele>134.95</ele>
        <time>2025-11-06T10:47:38Z</time>
      </trkpt>
      <trkpt lat="48.7943" lon="2.20873">
        <ele>134.09</ele>
        <time>2025-11-06T10:47:53Z</time>
      </trkpt>
      <trkpt lat="48.79438" lon="2.20852">
        <ele>133.23</ele>
        <time>2025-11-06T10:48:06Z</time>
      </trkpt>
      <trkpt lat="48.79444" lon="2.20834">
        <ele>134.24</ele>
        <time>2025-11-06T10:48:21Z</time>
      </trkpt>
      <trkpt lat="48.79446" lon="2.20835">
        <ele>134.53</ele>
        <time>2025-11-06T10:48:27Z</time>
      </trkpt>
      <trkpt lat="48.79453" lon="2.20845">
        <ele>134.82</ele>
        <time>2025-11-06T10:48:47Z</time>
      </trkpt>
      <trkpt lat="48.7946" lon="2.20853">
        <ele>134.79</ele>
        <time>2025-11-06T10:49:12Z</time>
      </trkpt>
      <trkpt lat="48.79463" lon="2.20854">
        <ele>134.5</ele>
        <time>2025-11-06T10:49:34Z</time>
      </trkpt>
      <trkpt lat="48.79464" lon="2.20852">
        <ele>134.76</ele>
        <time>2025-11-06T10:49:55Z</time>
      </trkpt>
      <trkpt lat="48.7947" lon="2.2086">
        <ele>135.72</ele>
        <time>2025-11-06T10:50:11Z</time>
      </trkpt>
      <trkpt lat="48.79474" lon="2.20869">
        <ele>135.39</ele>
        <time>2025-11-06T10:50:24Z</time>
      </trkpt>
      <trkpt lat="48.79482" lon="2.20894">
        <ele>136.47</ele>
        <time>2025-11-06T10:50:42Z</time>
      </trkpt>
      <trkpt lat="48.7949" lon="2.20908">
        <ele>136.8</ele>
        <time>2025-11-06T10:50:56Z</time>
      </trkpt>
      <trkpt lat="48.79495" lon="2.20907">
        <ele>136.95</ele>
        <time>2025-11-06T10:50:59Z</time>
      </trkpt>
      <trkpt lat="48.79509" lon="2.209">
        <ele>137.35</ele>
        <time>2025-11-06T10:51:12Z</time>
      </trkpt>
      <trkpt lat="48.79517" lon="2.20896">
        <ele>137.34</ele>
        <time>2025-11-06T10:51:26Z</time>
      </trkpt>
      <trkpt lat="48.79518" lon="2.20898">
        <ele>137.49</ele>
        <time>2025-11-06T10:51:43Z</time>
      </trkpt>
      <trkpt lat="48.79527" lon="2.20891">
        <ele>137.48</ele>
        <time>2025-11-06T10:51:57Z</time>
      </trkpt>
      <trkpt lat="48.79542" lon="2.2088">
        <ele>138.68</ele>
        <time>2025-11-06T10:52:11Z</time>
      </trkpt>
      <trkpt lat="48.79558" lon="2.20871">
        <ele>138.8</ele>
        <time>2025-11-06T10:52:27Z</time>
      </trkpt>
      <trkpt lat="48.79578" lon="2.20861">
        <ele>139.19</ele>
        <time>2025-11-06T10:52:44Z</time>
      </trkpt>
      <trkpt lat="48.79594" lon="2.20847">
        <ele>139.29</ele>
        <time>2025-11-06T10:52:58Z</time>
      </trkpt>
      <trkpt lat="48.79612" lon="2.20835">
        <ele>139.38</ele>
        <time>2025-11-06T10:53:16Z</time>
      </trkpt>
      <trkpt lat="48.79618" lon="2.20832">
        <ele>140.02</ele>
        <time>2025-11-06T10:53:21Z</time>
      </trkpt>
      <trkpt lat="48.79637" lon="2.20819">
        <ele>140.18</ele>
        <time>2025-11-06T10:53:38Z</time>
      </trkpt>
      <trkpt lat="48.7965" lon="2.20812">
        <ele>140.21</ele>
        <time>2025-11-06T10:53:49Z</time>
      </trkpt>
      <trkpt lat="48.79654" lon="2.2081">
        <ele>140.09</ele>
        <time>2025-11-06T10:53:51Z</time>
      </trkpt>
      <trkpt lat="48.79676" lon="2.20799">
        <ele>140.72</ele>
        <time>2025-11-06T10:54:11Z</time>
      </trkpt>
      <trkpt lat="48.79687" lon="2.20791">
        <ele>140.9</ele>
        <time>2025-11-06T10:54:26Z</time>
      </trkpt>
      <trkpt lat="48.79704" lon="2.2078">
        <ele>141.33</ele>
        <time>2025-11-06T10:54:42Z</time>
      </trkpt>
      <trkpt lat="48.79715" lon="2.20768">
        <ele>142.02</ele>
        <time>2025-11-06T10:54:57Z</time>
      </trkpt>
      <trkpt lat="48.79726" lon="2.20767">
        <ele>142.03</ele>
        <time>2025-11-06T10:55:14Z</time>
      </trkpt>
      <trkpt lat="48.79733" lon="2.2077">
        <ele>142.11</ele>
        <time>2025-11-06T10:55:31Z</time>
      </trkpt>
      <trkpt lat="48.7973" lon="2.20771">
        <ele>141.87</ele>
        <time>2025-11-06T10:55:48Z</time>
      </trkpt>
      <trkpt lat="48.79727" lon="2.20777">
        <ele>141.96</ele>
        <time>2025-11-06T10:56:08Z</time>
      </trkpt>
      <trkpt lat="48.79736" lon="2.20797">
        <ele>141.88</ele>
        <time>2025-11-06T10:56:26Z</time>
      </trkpt>
      <trkpt lat="48.79745" lon="2.20815">
        <ele>141.7</ele>
        <time>2025-11-06T10:56:40Z</time>
      </trkpt>
      <trkpt lat="48.79749" lon="2.20836">
        <ele>141.69</ele>
        <time>2025-11-06T10:56:55Z</time>
      </trkpt>
      <trkpt lat="48.79756" lon="2.20858">
        <ele>141.61</ele>
        <time>2025-11-06T10:57:13Z</time>
      </trkpt>
      <trkpt lat="48.79763" lon="2.20873">
        <ele>141.86</ele>
        <time>2025-11-06T10:57:22Z</time>
      </trkpt>
      <trkpt lat="48.79768" lon="2.2089">
        <ele>141.72</ele>
        <time>2025-11-06T10:57:34Z</time>
      </trkpt>
      <trkpt lat="48.79775" lon="2.20913">
        <ele>141.75</ele>
        <time>2025-11-06T10:57:52Z</time>
      </trkpt>
      <trkpt lat="48.79781" lon="2.20934">
        <ele>141.8</ele>
        <time>2025-11-06T10:58:07Z</time>
      </trkpt>
      <trkpt lat="48.79787" lon="2.20954">
        <ele>141.36</ele>
        <time>2025-11-06T10:58:20Z</time>
      </trkpt>
      <trkpt lat="48.79796" lon="2.20972">
        <ele>141.26</ele>
        <time>2025-11-06T10:58:33Z</time>
      </trkpt>
      <trkpt lat="48.79798" lon="2.20985">
        <ele>141.16</ele>
        <time>2025-11-06T10:58:44Z</time>
      </trkpt>
      <trkpt lat="48.79806" lon="2.21004">
        <ele>140.87</ele>
        <time>2025-11-06T10:59:00Z</time>
      </trkpt>
      <trkpt lat="48.79815" lon="2.21028">
        <ele>141.12</ele>
        <time>2025-11-06T10:59:17Z</time>
      </trkpt>
      <trkpt lat="48.79816" lon="2.21031">
        <ele>141.07</ele>
        <time>2025-11-06T10:59:20Z</time>
      </trkpt>
      <trkpt lat="48.79819" lon="2.2104">
        <ele>140.89</ele>
        <time>2025-11-06T10:59:33Z</time>
      </trkpt>
      <trkpt lat="48.79823" lon="2.21056">
        <ele>140.62</ele>
        <time>2025-11-06T10:59:45Z</time>
      </trkpt>
      <trkpt lat="48.79826" lon="2.21072">
        <ele>141.18</ele>
        <time>2025-11-06T10:59:59Z</time>
      </trkpt>
      <trkpt lat="48.79817" lon="2.21097">
        <ele>141.1</ele>
        <time>2025-11-06T11:00:16Z</time>
      </trkpt>
      <trkpt lat="48.79809" lon="2.21108">
        <ele>141.03</ele>
        <time>2025-11-06T11:00:30Z</time>
      </trkpt>
      <trkpt lat="48.79795" lon="2.21123">
        <ele>139.92</ele>
        <time>2025-11-06T11:00:46Z</time>
      </trkpt>
      <trkpt lat="48.79783" lon="2.21127">
        <ele>140.71</ele>
        <time>2025-11-06T11:00:58Z</time>
      </trkpt>
      <trkpt lat="48.79768" lon="2.21136">
        <ele>140.78</ele>
        <time>2025-11-06T11:01:15Z</time>
      </trkpt>
      <trkpt lat="48.79753" lon="2.21144">
        <ele>140.68</ele>
        <time>2025-11-06T11:01:31Z</time>
      </trkpt>
      <trkpt lat="48.79734" lon="2.2116">
        <ele>140.63</ele>
        <time>2025-11-06T11:01:49Z</time>
      </trkpt>
      <trkpt lat="48.79719" lon="2.21172">
        <ele>140.78</ele>
        <time>2025-11-06T11:02:05Z</time>
      </trkpt>
      <trkpt lat="48.79703" lon="2.21184">
        <ele>139.95</ele>
        <time>2025-11-06T11:02:21Z</time>
      </trkpt>
      <trkpt lat="48.79688" lon="2.21195">
        <ele>140.56</ele>
        <time>2025-11-06T11:02:38Z</time>
      </trkpt>
      <trkpt lat="48.79671" lon="2.2121">
        <ele>140.67</ele>
        <time>2025-11-06T11:02:55Z</time>
      </trkpt>
      <trkpt lat="48.79661" lon="2.21217">
        <ele>140.87</ele>
        <time>2025-11-06T11:03:04Z</time>
      </trkpt>
      <trkpt lat="48.79652" lon="2.21233">
        <ele>140.53</ele>
        <time>2025-11-06T11:03:16Z</time>
      </trkpt>
      <trkpt lat="48.79655" lon="2.21246">
        <ele>140.85</ele>
        <time>2025-11-06T11:03:33Z</time>
      </trkpt>
      <trkpt lat="48.79663" lon="2.21255">
        <ele>140.25</ele>
        <time>2025-11-06T11:03:48Z</time>
      </trkpt>
      <trkpt lat="48.79674" lon="2.21266">
        <ele>141.03</ele>
        <time>2025-11-06T11:04:01Z</time>
      </trkpt>
      <trkpt lat="48.79683" lon="2.21274">
        <ele>140.62</ele>
        <time>2025-11-06T11:04:11Z</time>
      </trkpt>
      <trkpt lat="48.79697" lon="2.2129">
        <ele>140.96</ele>
        <time>2025-11-06T11:04:27Z</time>
      </trkpt>
      <trkpt lat="48.79708" lon="2.21298">
        <ele>140.94</ele>
        <time>2025-11-06T11:04:39Z</time>
      </trkpt>
      <trkpt lat="48.79716" lon="2.21305">
        <ele>140.76</ele>
        <time>2025-11-06T11:04:48Z</time>
      </trkpt>
      <trkpt lat="48.7972" lon="2.21308">
        <ele>140.98</ele>
        <time>2025-11-06T11:04:52Z</time>
      </trkpt>
      <trkpt lat="48.7973" lon="2.21319">
        <ele>141.17</ele>
        <time>2025-11-06T11:05:02Z</time>
      </trkpt>
      <trkpt lat="48.79743" lon="2.21334">
        <ele>141.23</ele>
        <time>2025-11-06T11:05:16Z</time>
      </trkpt>
      <trkpt lat="48.79757" lon="2.21343">
        <ele>141.25</ele>
        <time>2025-11-06T11:05:30Z</time>
      </trkpt>
      <trkpt lat="48.79764" lon="2.21349">
        <ele>138.82</ele>
        <time>2025-11-06T11:05:37Z</time>
      </trkpt>
      <trkpt lat="48.7977" lon="2.21354">
        <ele>138.84</ele>
        <time>2025-11-06T11:05:41Z</time>
      </trkpt>
      <trkpt lat="48.79771" lon="2.21357">
        <ele>140.71</ele>
        <time>2025-11-06T11:05:43Z</time>
      </trkpt>
      <trkpt lat="48.79781" lon="2.21368">
        <ele>140.46</ele>
        <time>2025-11-06T11:05:53Z</time>
      </trkpt>
      <trkpt lat="48.79791" lon="2.21377">
        <ele>140.43</ele>
        <time>2025-11-06T11:06:03Z</time>
      </trkpt>
      <trkpt lat="48.79808" lon="2.21395">
        <ele>140.91</ele>
        <time>2025-11-06T11:06:22Z</time>
      </trkpt>
      <trkpt lat="48.79819" lon="2.21407">
        <ele>140.94</ele>
        <time>2025-11-06T11:06:33Z</time>
      </trkpt>
      <trkpt lat="48.79826" lon="2.21414">
        <ele>140.64</ele>
        <time>2025-11-06T11:06:43Z</time>
      </trkpt>
      <trkpt lat="48.79843" lon="2.21427">
        <ele>140.95</ele>
        <time>2025-11-06T11:06:57Z</time>
      </trkpt>
      <trkpt lat="48.7985" lon="2.21434">
        <ele>140.7</ele>
        <time>2025-11-06T11:07:07Z</time>
      </trkpt>
      <trkpt lat="48.79864" lon="2.2145">
        <ele>140.56</ele>
        <time>2025-11-06T11:07:22Z</time>
      </trkpt>
      <trkpt lat="48.79864" lon="2.21466">
        <ele>140.74</ele>
        <time>2025-11-06T11:07:36Z</time>
      </trkpt>
      <trkpt lat="48.79855" lon="2.21492">
        <ele>139.71</ele>
        <time>2025-11-06T11:07:55Z</time>
      </trkpt>
      <trkpt lat="48.79853" lon="2.21496">
        <ele>139.61</ele>
        <time>2025-11-06T11:07:57Z</time>
      </trkpt>
      <trkpt lat="48.79843" lon="2.21519">
        <ele>138.06</ele>
        <time>2025-11-06T11:08:13Z</time>
      </trkpt>
      <trkpt lat="48.79839" lon="2.21531">
        <ele>137.32</ele>
        <time>2025-11-06T11:08:25Z</time>
      </trkpt>
      <trkpt lat="48.79832" lon="2.21547">
        <ele>136.48</ele>
        <time>2025-11-06T11:08:40Z</time>
      </trkpt>
      <trkpt lat="48.79826" lon="2.21562">
        <ele>135.15</ele>
        <time>2025-11-06T11:08:54Z</time>
      </trkpt>
      <trkpt lat="48.7982" lon="2.21585">
        <ele>134.13</ele>
        <time>2025-11-06T11:09:10Z</time>
      </trkpt>
      <trkpt lat="48.79818" lon="2.21613">
        <ele>133.07</ele>
        <time>2025-11-06T11:09:27Z</time>
      </trkpt>
      <trkpt lat="48.79817" lon="2.21627">
        <ele>133.07</ele>
        <time>2025-11-06T11:09:36Z</time>
      </trkpt>
      <trkpt lat="48.79815" lon="2.21637">
        <ele>132.53</ele>
        <time>2025-11-06T11:09:44Z</time>
      </trkpt>
      <trkpt lat="48.79805" lon="2.21663">
        <ele>132.87</ele>
        <time>2025-11-06T11:10:00Z</time>
      </trkpt>
      <trkpt lat="48.79802" lon="2.2167">
        <ele>132.51</ele>
        <time>2025-11-06T11:10:05Z</time>
      </trkpt>
      <trkpt lat="48.79805" lon="2.21698">
        <ele>131.86</ele>
        <time>2025-11-06T11:10:17Z</time>
      </trkpt>
      <trkpt lat="48.7981" lon="2.21715">
        <ele>132.13</ele>
        <time>2025-11-06T11:10:34Z</time>
      </trkpt>
      <trkpt lat="48.79807" lon="2.21735">
        <ele>131.39</ele>
        <time>2025-11-06T11:10:50Z</time>
      </trkpt>
      <trkpt lat="48.79806" lon="2.21737">
        <ele>131.48</ele>
        <time>2025-11-06T11:10:51Z</time>
      </trkpt>
      <trkpt lat="48.79805" lon="2.21763">
        <ele>131.23</ele>
        <time>2025-11-06T11:11:07Z</time>
      </trkpt>
      <trkpt lat="48.79807" lon="2.21789">
        <ele>131.78</ele>
        <time>2025-11-06T11:11:23Z</time>
      </trkpt>
      <trkpt lat="48.79805" lon="2.21821">
        <ele>130.72</ele>
        <time>2025-11-06T11:11:43Z</time>
      </trkpt>
      <trkpt lat="48.79799" lon="2.21841">
        <ele>131.3</ele>
        <time>2025-11-06T11:11:56Z</time>
      </trkpt>
      <trkpt lat="48.798" lon="2.21842">
        <ele>130.71</ele>
        <time>2025-11-06T11:11:57Z</time>
      </trkpt>
      <trkpt lat="48.79799" lon="2.21841">
        <ele>130.81</ele>
        <time>2025-11-06T11:12:17Z</time>
      </trkpt>
      <trkpt lat="48.79797" lon="2.21838">
        <ele>131.57</ele>
        <time>2025-11-06T11:12:30Z</time>
      </trkpt>
      <trkpt lat="48.79798" lon="2.21849">
        <ele>131.02</ele>
        <time>2025-11-06T11:12:45Z</time>
      </trkpt>
      <trkpt lat="48.79796" lon="2.21875">
        <ele>128.83</ele>
        <time>2025-11-06T11:13:00Z</time>
      </trkpt>
      <trkpt lat="48.79791" lon="2.21908">
        <ele>127.26</ele>
        <time>2025-11-06T11:13:19Z</time>
      </trkpt>
      <trkpt lat="48.79783" lon="2.21935">
        <ele>126.95</ele>
        <time>2025-11-06T11:13:36Z</time>
      </trkpt>
      <trkpt lat="48.7978" lon="2.21948">
        <ele>126.73</ele>
        <time>2025-11-06T11:13:44Z</time>
      </trkpt>
      <trkpt lat="48.79769" lon="2.21978">
        <ele>126.71</ele>
        <time>2025-11-06T11:14:01Z</time>
      </trkpt>
      <trkpt lat="48.79763" lon="2.21997">
        <ele>126.59</ele>
        <time>2025-11-06T11:14:15Z</time>
      </trkpt>
      <trkpt lat="48.79753" lon="2.22019">
        <ele>126.81</ele>
        <time>2025-11-06T11:14:29Z</time>
      </trkpt>
      <trkpt lat="48.79747" lon="2.22042">
        <ele>126.26</ele>
        <time>2025-11-06T11:14:43Z</time>
      </trkpt>
      <trkpt lat="48.79746" lon="2.22044">
        <ele>126.06</ele>
        <time>2025-11-06T11:14:44Z</time>
      </trkpt>
      <trkpt lat="48.79738" lon="2.22067">
        <ele>126.52</ele>
        <time>2025-11-06T11:15:01Z</time>
      </trkpt>
      <trkpt lat="48.7973" lon="2.2209">
        <ele>126.75</ele>
        <time>2025-11-06T11:15:19Z</time>
      </trkpt>
      <trkpt lat="48.79721" lon="2.22114">
        <ele>127.06</ele>
        <time>2025-11-06T11:15:34Z</time>
      </trkpt>
      <trkpt lat="48.79718" lon="2.22136">
        <ele>127.58</ele>
        <time>2025-11-06T11:15:50Z</time>
      </trkpt>
      <trkpt lat="48.79713" lon="2.22162">
        <ele>128.02</ele>
        <time>2025-11-06T11:16:06Z</time>
      </trkpt>
      <trkpt lat="48.79721" lon="2.22174">
        <ele>128.31</ele>
        <time>2025-11-06T11:16:21Z</time>
      </trkpt>
      <trkpt lat="48.79719" lon="2.22176">
        <ele>127.93</ele>
        <time>2025-11-06T11:16:41Z</time>
      </trkpt>
      <trkpt lat="48.79724" lon="2.22169">
        <ele>131.15</ele>
        <time>2025-11-06T11:25:15Z</time>
      </trkpt>
      <trkpt lat="48.79726" lon="2.22167">
        <ele>129.75</ele>
        <time>2025-11-06T11:25:18Z</time>
      </trkpt>
      <trkpt lat="48.79737" lon="2.22168">
        <ele>129.21</ele>
        <time>2025-11-06T11:25:29Z</time>
      </trkpt>
      <trkpt lat="48.79749" lon="2.22173">
        <ele>129.73</ele>
        <time>2025-11-06T11:25:41Z</time>
      </trkpt>
      <trkpt lat="48.79753" lon="2.22175">
        <ele>128.66</ele>
        <time>2025-11-06T11:25:45Z</time>
      </trkpt>
      <trkpt lat="48.79763" lon="2.2218">
        <ele>128.87</ele>
        <time>2025-11-06T11:25:56Z</time>
      </trkpt>
      <trkpt lat="48.7977" lon="2.22183">
        <ele>129.29</ele>
        <time>2025-11-06T11:26:05Z</time>
      </trkpt>
      <trkpt lat="48.79781" lon="2.22185">
        <ele>129.61</ele>
        <time>2025-11-06T11:26:29Z</time>
      </trkpt>
      <trkpt lat="48.79811" lon="2.22191">
        <ele>129.14</ele>
        <time>2025-11-06T11:26:45Z</time>
      </trkpt>
      <trkpt lat="48.79829" lon="2.2219">
        <ele>131.34</ele>
        <time>2025-11-06T11:26:55Z</time>
      </trkpt>
      <trkpt lat="48.79831" lon="2.22187">
        <ele>131.01</ele>
        <time>2025-11-06T11:26:59Z</time>
      </trkpt>
      <trkpt lat="48.79832" lon="2.22186">
        <ele>131.21</ele>
        <time>2025-11-06T11:27:14Z</time>
      </trkpt>
      <trkpt lat="48.79832" lon="2.22187">
        <ele>131.12</ele>
        <time>2025-11-06T11:27:16Z</time>
      </trkpt>
      <trkpt lat="48.79824" lon="2.22199">
        <ele>131.44</ele>
        <time>2025-11-06T11:27:34Z</time>
      </trkpt>
      <trkpt lat="48.79824" lon="2.2221">
        <ele>132.46</ele>
        <time>2025-11-06T11:27:56Z</time>
      </trkpt>
      <trkpt lat="48.79827" lon="2.2222">
        <ele>134.21</ele>
        <time>2025-11-06T11:28:05Z</time>
      </trkpt>
      <trkpt lat="48.79836" lon="2.22228">
        <ele>135.39</ele>
        <time>2025-11-06T11:28:17Z</time>
      </trkpt>
      <trkpt lat="48.79852" lon="2.22235">
        <ele>136.48</ele>
        <time>2025-11-06T11:28:31Z</time>
      </trkpt>
      <trkpt lat="48.79863" lon="2.22236">
        <ele>136.93</ele>
        <time>2025-11-06T11:28:39Z</time>
      </trkpt>
      <trkpt lat="48.79871" lon="2.22231">
        <ele>137.56</ele>
        <time>2025-11-06T11:28:46Z</time>
      </trkpt>
      <trkpt lat="48.79882" lon="2.2223">
        <ele>139.48</ele>
        <time>2025-11-06T11:28:59Z</time>
      </trkpt>
      <trkpt lat="48.79892" lon="2.22232">
        <ele>140.66</ele>
        <time>2025-11-06T11:29:08Z</time>
      </trkpt>
      <trkpt lat="48.799" lon="2.22233">
        <ele>141.99</ele>
        <time>2025-11-06T11:29:19Z</time>
      </trkpt>
      <trkpt lat="48.79913" lon="2.22234">
        <ele>143.31</ele>
        <time>2025-11-06T11:29:30Z</time>
      </trkpt>
      <trkpt lat="48.7992" lon="2.22235">
        <ele>144.24</ele>
        <time>2025-11-06T11:29:38Z</time>
      </trkpt>
      <trkpt lat="48.79926" lon="2.22237">
        <ele>145.2</ele>
        <time>2025-11-06T11:29:45Z</time>
      </trkpt>
      <trkpt lat="48.79928" lon="2.22238">
        <ele>145.07</ele>
        <time>2025-11-06T11:29:47Z</time>
      </trkpt>
      <trkpt lat="48.79937" lon="2.22243">
        <ele>146.28</ele>
        <time>2025-11-06T11:29:58Z</time>
      </trkpt>
      <trkpt lat="48.7995" lon="2.22245">
        <ele>147.2</ele>
        <time>2025-11-06T11:30:12Z</time>
      </trkpt>
      <trkpt lat="48.79954" lon="2.22243">
        <ele>149.17</ele>
        <time>2025-11-06T11:30:26Z</time>
      </trkpt>
      <trkpt lat="48.79976" lon="2.22245">
        <ele>148.93</ele>
        <time>2025-11-06T11:30:44Z</time>
      </trkpt>
      <trkpt lat="48.79982" lon="2.22239">
        <ele>149.02</ele>
        <time>2025-11-06T11:30:54Z</time>
      </trkpt>
      <trkpt lat="48.79997" lon="2.22224">
        <ele>149.09</ele>
        <time>2025-11-06T11:31:14Z</time>
      </trkpt>
      <trkpt lat="48.80006" lon="2.22216">
        <ele>149.44</ele>
        <time>2025-11-06T11:31:26Z</time>
      </trkpt>
      <trkpt lat="48.80012" lon="2.22215">
        <ele>149.79</ele>
        <time>2025-11-06T11:31:33Z</time>
      </trkpt>
      <trkpt lat="48.8002" lon="2.22203">
        <ele>149.77</ele>
        <time>2025-11-06T11:31:44Z</time>
      </trkpt>
      <trkpt lat="48.80023" lon="2.222">
        <ele>149.52</ele>
        <time>2025-11-06T11:31:46Z</time>
      </trkpt>
      <trkpt lat="48.80031" lon="2.22189">
        <ele>149.71</ele>
        <time>2025-11-06T11:31:56Z</time>
      </trkpt>
      <trkpt lat="48.80039" lon="2.22184">
        <ele>149.85</ele>
        <time>2025-11-06T11:32:05Z</time>
      </trkpt>
      <trkpt lat="48.80053" lon="2.22167">
        <ele>149.73</ele>
        <time>2025-11-06T11:32:21Z</time>
      </trkpt>
      <trkpt lat="48.80058" lon="2.22163">
        <ele>150.16</ele>
        <time>2025-11-06T11:32:27Z</time>
      </trkpt>
      <trkpt lat="48.80066" lon="2.22156">
        <ele>149.69</ele>
        <time>2025-11-06T11:32:34Z</time>
      </trkpt>
      <trkpt lat="48.80078" lon="2.22147">
        <ele>149.88</ele>
        <time>2025-11-06T11:32:46Z</time>
      </trkpt>
      <trkpt lat="48.80091" lon="2.2214">
        <ele>149.76</ele>
        <time>2025-11-06T11:32:57Z</time>
      </trkpt>
      <trkpt lat="48.80094" lon="2.22138">
        <ele>149.54</ele>
        <time>2025-11-06T11:33:00Z</time>
      </trkpt>
      <trkpt lat="48.80104" lon="2.22131">
        <ele>150.06</ele>
        <time>2025-11-06T11:33:11Z</time>
      </trkpt>
      <trkpt lat="48.80111" lon="2.22124">
        <ele>150.25</ele>
        <time>2025-11-06T11:33:20Z</time>
      </trkpt>
      <trkpt lat="48.80112" lon="2.2211">
        <ele>150.23</ele>
        <time>2025-11-06T11:33:33Z</time>
      </trkpt>
      <trkpt lat="48.80126" lon="2.2211">
        <ele>150.75</ele>
        <time>2025-11-06T11:33:46Z</time>
      </trkpt>
      <trkpt lat="48.80129" lon="2.2211">
        <ele>150.77</ele>
        <time>2025-11-06T11:33:48Z</time>
      </trkpt>
      <trkpt lat="48.80137" lon="2.2211">
        <ele>150.2</ele>
        <time>2025-11-06T11:34:01Z</time>
      </trkpt>
      <trkpt lat="48.80147" lon="2.22105">
        <ele>150.35</ele>
        <time>2025-11-06T11:34:12Z</time>
      </trkpt>
      <trkpt lat="48.80149" lon="2.22103">
        <ele>150.47</ele>
        <time>2025-11-06T11:34:14Z</time>
      </trkpt>
      <trkpt lat="48.80172" lon="2.22095">
        <ele>150.66</ele>
        <time>2025-11-06T11:34:29Z</time>
      </trkpt>
      <trkpt lat="48.80179" lon="2.22086">
        <ele>150.81</ele>
        <time>2025-11-06T11:34:36Z</time>
      </trkpt>
      <trkpt lat="48.8019" lon="2.2208">
        <ele>150.47</ele>
        <time>2025-11-06T11:34:44Z</time>
      </trkpt>
      <trkpt lat="48.80196" lon="2.22074">
        <ele>150.92</ele>
        <time>2025-11-06T11:34:50Z</time>
      </trkpt>
      <trkpt lat="48.802" lon="2.22064">
        <ele>150.55</ele>
        <time>2025-11-06T11:34:58Z</time>
      </trkpt>
      <trkpt lat="48.80207" lon="2.22055">
        <ele>150.88</ele>
        <time>2025-11-06T11:35:05Z</time>
      </trkpt>
      <trkpt lat="48.80211" lon="2.2205">
        <ele>151.31</ele>
        <time>2025-11-06T11:35:11Z</time>
      </trkpt>
      <trkpt lat="48.80218" lon="2.22046">
        <ele>150.87</ele>
        <time>2025-11-06T11:35:16Z</time>
      </trkpt>
      <trkpt lat="48.80233" lon="2.22033">
        <ele>150.93</ele>
        <time>2025-11-06T11:35:27Z</time>
      </trkpt>
      <trkpt lat="48.80237" lon="2.22028">
        <ele>150.89</ele>
        <time>2025-11-06T11:35:33Z</time>
      </trkpt>
      <trkpt lat="48.80251" lon="2.22026">
        <ele>150.83</ele>
        <time>2025-11-06T11:35:40Z</time>
      </trkpt>
      <trkpt lat="48.80254" lon="2.22025">
        <ele>150.7</ele>
        <time>2025-11-06T11:35:43Z</time>
      </trkpt>
      <trkpt lat="48.80259" lon="2.22019">
        <ele>151.06</ele>
        <time>2025-11-06T11:35:48Z</time>
      </trkpt>
      <trkpt lat="48.80267" lon="2.22014">
        <ele>150.75</ele>
        <time>2025-11-06T11:35:58Z</time>
      </trkpt>
      <trkpt lat="48.80279" lon="2.22006">
        <ele>150.35</ele>
        <time>2025-11-06T11:36:07Z</time>
      </trkpt>
      <trkpt lat="48.80284" lon="2.22001">
        <ele>150.72</ele>
        <time>2025-11-06T11:36:14Z</time>
      </trkpt>
      <trkpt lat="48.80292" lon="2.21998">
        <ele>151.33</ele>
        <time>2025-11-06T11:36:23Z</time>
      </trkpt>
      <trkpt lat="48.80294" lon="2.21997">
        <ele>151.2</ele>
        <time>2025-11-06T11:36:24Z</time>
      </trkpt>
      <trkpt lat="48.80304" lon="2.21994">
        <ele>151.39</ele>
        <time>2025-11-06T11:36:33Z</time>
      </trkpt>
      <trkpt lat="48.80318" lon="2.21992">
        <ele>151.11</ele>
        <time>2025-11-06T11:36:52Z</time>
      </trkpt>
      <trkpt lat="48.80323" lon="2.21994">
        <ele>151.08</ele>
        <time>2025-11-06T11:37:02Z</time>
      </trkpt>
      <trkpt lat="48.80329" lon="2.21996">
        <ele>150.87</ele>
        <time>2025-11-06T11:37:08Z</time>
      </trkpt>
      <trkpt lat="48.80336" lon="2.21999">
        <ele>150.18</ele>
        <time>2025-11-06T11:37:17Z</time>
      </trkpt>
      <trkpt lat="48.80347" lon="2.22005">
        <ele>150.47</ele>
        <time>2025-11-06T11:37:27Z</time>
      </trkpt>
      <trkpt lat="48.80355" lon="2.22007">
        <ele>150.16</ele>
        <time>2025-11-06T11:37:41Z</time>
      </trkpt>
      <trkpt lat="48.8036" lon="2.22011">
        <ele>150.27</ele>
        <time>2025-11-06T11:37:51Z</time>
      </trkpt>
      <trkpt lat="48.80376" lon="2.22018">
        <ele>149.93</ele>
        <time>2025-11-06T11:38:02Z</time>
      </trkpt>
      <trkpt lat="48.8038" lon="2.2202">
        <ele>150.32</ele>
        <time>2025-11-06T11:38:05Z</time>
      </trkpt>
      <trkpt lat="48.80388" lon="2.22026">
        <ele>150.69</ele>
        <time>2025-11-06T11:38:12Z</time>
      </trkpt>
      <trkpt lat="48.804" lon="2.22032">
        <ele>150.75</ele>
        <time>2025-11-06T11:38:23Z</time>
      </trkpt>
      <trkpt lat="48.80413" lon="2.22039">
        <ele>150.05</ele>
        <time>2025-11-06T11:38:31Z</time>
      </trkpt>
      <trkpt lat="48.80417" lon="2.22041">
        <ele>150.08</ele>
        <time>2025-11-06T11:38:35Z</time>
      </trkpt>
      <trkpt lat="48.80431" lon="2.2205">
        <ele>150.46</ele>
        <time>2025-11-06T11:38:50Z</time>
      </trkpt>
      <trkpt lat="48.80434" lon="2.2205">
        <ele>150.47</ele>
        <time>2025-11-06T11:38:53Z</time>
      </trkpt>
      <trkpt lat="48.80452" lon="2.22052">
        <ele>150.03</ele>
        <time>2025-11-06T11:39:02Z</time>
      </trkpt>
      <trkpt lat="48.80458" lon="2.22055">
        <ele>149.7</ele>
        <time>2025-11-06T11:39:08Z</time>
      </trkpt>
      <trkpt lat="48.80463" lon="2.22066">
        <ele>150.36</ele>
        <time>2025-11-06T11:39:17Z</time>
      </trkpt>
      <trkpt lat="48.80463" lon="2.2207">
        <ele>150.36</ele>
        <time>2025-11-06T11:39:19Z</time>
      </trkpt>
      <trkpt lat="48.8047" lon="2.22086">
        <ele>150.18</ele>
        <time>2025-11-06T11:39:30Z</time>
      </trkpt>
      <trkpt lat="48.8047" lon="2.22087">
        <ele>149.55</ele>
        <time>2025-11-06T11:39:31Z</time>
      </trkpt>
      <trkpt lat="48.80476" lon="2.22106">
        <ele>150.08</ele>
        <time>2025-11-06T11:39:42Z</time>
      </trkpt>
      <trkpt lat="48.80476" lon="2.22108">
        <ele>150.31</ele>
        <time>2025-11-06T11:39:43Z</time>
      </trkpt>
      <trkpt lat="48.8048" lon="2.22117">
        <ele>150.42</ele>
        <time>2025-11-06T11:39:50Z</time>
      </trkpt>
      <trkpt lat="48.80485" lon="2.22134">
        <ele>150.67</ele>
        <time>2025-11-06T11:40:00Z</time>
      </trkpt>
      <trkpt lat="48.8049" lon="2.22144">
        <ele>150.36</ele>
        <time>2025-11-06T11:40:09Z</time>
      </trkpt>
      <trkpt lat="48.80494" lon="2.22157">
        <ele>150.31</ele>
        <time>2025-11-06T11:40:18Z</time>
      </trkpt>
      <trkpt lat="48.80495" lon="2.22169">
        <ele>150.67</ele>
        <time>2025-11-06T11:40:27Z</time>
      </trkpt>
      <trkpt lat="48.80498" lon="2.22186">
        <ele>150.44</ele>
        <time>2025-11-06T11:40:42Z</time>
      </trkpt>
      <trkpt lat="48.80508" lon="2.22219">
        <ele>149.83</ele>
        <time>2025-11-06T11:41:00Z</time>
      </trkpt>
      <trkpt lat="48.8051" lon="2.22231">
        <ele>150.16</ele>
        <time>2025-11-06T11:41:08Z</time>
      </trkpt>
      <trkpt lat="48.80518" lon="2.22252">
        <ele>150.37</ele>
        <time>2025-11-06T11:41:22Z</time>
      </trkpt>
      <trkpt lat="48.80521" lon="2.22257">
        <ele>150.63</ele>
        <time>2025-11-06T11:41:25Z</time>
      </trkpt>
      <trkpt lat="48.80523" lon="2.22265">
        <ele>150.35</ele>
        <time>2025-11-06T11:41:30Z</time>
      </trkpt>
      <trkpt lat="48.80526" lon="2.22275">
        <ele>150.36</ele>
        <time>2025-11-06T11:41:37Z</time>
      </trkpt>
      <trkpt lat="48.80532" lon="2.22285">
        <ele>149.61</ele>
        <time>2025-11-06T11:41:42Z</time>
      </trkpt>
      <trkpt lat="48.80538" lon="2.22292">
        <ele>150.71</ele>
        <time>2025-11-06T11:41:49Z</time>
      </trkpt>
      <trkpt lat="48.80539" lon="2.22293">
        <ele>150.44</ele>
        <time>2025-11-06T11:41:51Z</time>
      </trkpt>
      <trkpt lat="48.80542" lon="2.22293">
        <ele>150.83</ele>
        <time>2025-11-06T11:41:54Z</time>
      </trkpt>
      <trkpt lat="48.80552" lon="2.22299">
        <ele>151.22</ele>
        <time>2025-11-06T11:42:07Z</time>
      </trkpt>
      <trkpt lat="48.80555" lon="2.2232">
        <ele>152.49</ele>
        <time>2025-11-06T11:42:20Z</time>
      </trkpt>
      <trkpt lat="48.80555" lon="2.22332">
        <ele>151.85</ele>
        <time>2025-11-06T11:42:27Z</time>
      </trkpt>
      <trkpt lat="48.80564" lon="2.22356">
        <ele>152.03</ele>
        <time>2025-11-06T11:42:43Z</time>
      </trkpt>
      <trkpt lat="48.80567" lon="2.22369">
        <ele>152.13</ele>
        <time>2025-11-06T11:42:57Z</time>
      </trkpt>
      <trkpt lat="48.80568" lon="2.22386">
        <ele>151.53</ele>
        <time>2025-11-06T11:43:10Z</time>
      </trkpt>
      <trkpt lat="48.80571" lon="2.22392">
        <ele>151.2</ele>
        <time>2025-11-06T11:43:14Z</time>
      </trkpt>
      <trkpt lat="48.80576" lon="2.22415">
        <ele>150.85</ele>
        <time>2025-11-06T11:43:30Z</time>
      </trkpt>
      <trkpt lat="48.80581" lon="2.2243">
        <ele>150.34</ele>
        <time>2025-11-06T11:43:43Z</time>
      </trkpt>
      <trkpt lat="48.80585" lon="2.22445">
        <ele>151.05</ele>
        <time>2025-11-06T11:43:53Z</time>
      </trkpt>
      <trkpt lat="48.80584" lon="2.22448">
        <ele>150.24</ele>
        <time>2025-11-06T11:43:54Z</time>
      </trkpt>
      <trkpt lat="48.80585" lon="2.22452">
        <ele>150.43</ele>
        <time>2025-11-06T11:43:57Z</time>
      </trkpt>
      <trkpt lat="48.80587" lon="2.22458">
        <ele>150.19</ele>
        <time>2025-11-06T11:44:01Z</time>
      </trkpt>
      <trkpt lat="48.80594" lon="2.22475">
        <ele>150.1</ele>
        <time>2025-11-06T11:44:14Z</time>
      </trkpt>
      <trkpt lat="48.806" lon="2.22481">
        <ele>150.18</ele>
        <time>2025-11-06T11:44:19Z</time>
      </trkpt>
      <trkpt lat="48.80611" lon="2.22498">
        <ele>149.87</ele>
        <time>2025-11-06T11:44:31Z</time>
      </trkpt>
      <trkpt lat="48.80616" lon="2.22499">
        <ele>149.7</ele>
        <time>2025-11-06T11:44:32Z</time>
      </trkpt>
      <trkpt lat="48.80616" lon="2.225">
        <ele>150.1</ele>
        <time>2025-11-06T11:44:39Z</time>
      </trkpt>
      <trkpt lat="48.80613" lon="2.22514">
        <ele>149.54</ele>
        <time>2025-11-06T11:44:53Z</time>
      </trkpt>
      <trkpt lat="48.80612" lon="2.22519">
        <ele>150.15</ele>
        <time>2025-11-06T11:44:55Z</time>
      </trkpt>
      <trkpt lat="48.80613" lon="2.22525">
        <ele>149.86</ele>
        <time>2025-11-06T11:44:58Z</time>
      </trkpt>
      <trkpt lat="48.80626" lon="2.2256">
        <ele>150.24</ele>
        <time>2025-11-06T11:45:30Z</time>
      </trkpt>
      <trkpt lat="48.80626" lon="2.22561">
        <ele>150.09</ele>
        <time>2025-11-06T11:45:31Z</time>
      </trkpt>
      <trkpt lat="48.80635" lon="2.22586">
        <ele>150.07</ele>
        <time>2025-11-06T11:45:48Z</time>
      </trkpt>
      <trkpt lat="48.80649" lon="2.22615">
        <ele>150.52</ele>
        <time>2025-11-06T11:46:06Z</time>
      </trkpt>
      <trkpt lat="48.8065" lon="2.22616">
        <ele>150.53</ele>
        <time>2025-11-06T11:46:07Z</time>
      </trkpt>
      <trkpt lat="48.80658" lon="2.22634">
        <ele>150.23</ele>
        <time>2025-11-06T11:46:23Z</time>
      </trkpt>
      <trkpt lat="48.80667" lon="2.22641">
        <ele>150.23</ele>
        <time>2025-11-06T11:46:35Z</time>
      </trkpt>
      <trkpt lat="48.80667" lon="2.22641">
        <ele>150.23</ele>
        <time>2025-11-06T11:46:36Z</time>
      </trkpt>
      <trkpt lat="48.80678" lon="2.22645">
        <ele>150.88</ele>
        <time>2025-11-06T11:46:49Z</time>
      </trkpt>
      <trkpt lat="48.80679" lon="2.22646">
        <ele>151.01</ele>
        <time>2025-11-06T11:47:03Z</time>
      </trkpt>
      <trkpt lat="48.80678" lon="2.22645">
        <ele>151.36</ele>
        <time>2025-11-06T11:47:21Z</time>
      </trkpt>
      <trkpt lat="48.80685" lon="2.22638">
        <ele>151.28</ele>
        <time>2025-11-06T11:47:39Z</time>
      </trkpt>
      <trkpt lat="48.80688" lon="2.22638">
        <ele>151.52</ele>
        <time>2025-11-06T11:47:59Z</time>
      </trkpt>
      <trkpt lat="48.80692" lon="2.22643">
        <ele>148.68</ele>
        <time>2025-11-06T11:48:06Z</time>
      </trkpt>
      <trkpt lat="48.80696" lon="2.22666">
        <ele>151.2</ele>
        <time>2025-11-06T11:48:22Z</time>
      </trkpt>
      <trkpt lat="48.80699" lon="2.22678">
        <ele>150.99</ele>
        <time>2025-11-06T11:48:36Z</time>
      </trkpt>
      <trkpt lat="48.80707" lon="2.22681">
        <ele>151.61</ele>
        <time>2025-11-06T11:48:46Z</time>
      </trkpt>
      <trkpt lat="48.80715" lon="2.22683">
        <ele>149.97</ele>
        <time>2025-11-06T11:48:54Z</time>
      </trkpt>
      <trkpt lat="48.80734" lon="2.22692">
        <ele>150.66</ele>
        <time>2025-11-06T11:49:13Z</time>
      </trkpt>
      <trkpt lat="48.80739" lon="2.22694">
        <ele>151.07</ele>
        <time>2025-11-06T11:49:16Z</time>
      </trkpt>
      <trkpt lat="48.80746" lon="2.22697">
        <ele>150.88</ele>
        <time>2025-11-06T11:49:22Z</time>
      </trkpt>
      <trkpt lat="48.80752" lon="2.227">
        <ele>150.68</ele>
        <time>2025-11-06T11:49:27Z</time>
      </trkpt>
      <trkpt lat="48.80754" lon="2.22701">
        <ele>150.73</ele>
        <time>2025-11-06T11:49:29Z</time>
      </trkpt>
      <trkpt lat="48.80758" lon="2.22702">
        <ele>150.81</ele>
        <time>2025-11-06T11:49:34Z</time>
      </trkpt>
      <trkpt lat="48.80762" lon="2.22703">
        <ele>150.71</ele>
        <time>2025-11-06T11:49:41Z</time>
      </trkpt>
      <trkpt lat="48.80773" lon="2.22705">
        <ele>150.79</ele>
        <time>2025-11-06T11:49:50Z</time>
      </trkpt>
      <trkpt lat="48.80774" lon="2.22705">
        <ele>150.79</ele>
        <time>2025-11-06T11:49:51Z</time>
      </trkpt>
      <trkpt lat="48.80774" lon="2.227">
        <ele>150.73</ele>
        <time>2025-11-06T11:49:59Z</time>
      </trkpt>
      <trkpt lat="48.80764" lon="2.22696">
        <ele>151.13</ele>
        <time>2025-11-06T11:50:15Z</time>
      </trkpt>
      <trkpt lat="48.80755" lon="2.22691">
        <ele>151.43</ele>
        <time>2025-11-06T11:50:24Z</time>
      </trkpt>
      <trkpt lat="48.80746" lon="2.22688">
        <ele>150.82</ele>
        <time>2025-11-06T11:50:35Z</time>
      </trkpt>
      <trkpt lat="48.80736" lon="2.2269">
        <ele>151.3</ele>
        <time>2025-11-06T11:50:48Z</time>
      </trkpt>
      <trkpt lat="48.80729" lon="2.22691">
        <ele>151.09</ele>
        <time>2025-11-06T11:50:57Z</time>
      </trkpt>
      <trkpt lat="48.80724" lon="2.22696">
        <ele>150.86</ele>
        <time>2025-11-06T11:51:20Z</time>
      </trkpt>
      <trkpt lat="48.80728" lon="2.22693">
        <ele>150.84</ele>
        <time>2025-11-06T11:51:42Z</time>
      </trkpt>
      <trkpt lat="48.8073" lon="2.22693">
        <ele>150.44</ele>
        <time>2025-11-06T11:51:45Z</time>
      </trkpt>
      <trkpt lat="48.80739" lon="2.22696">
        <ele>151.12</ele>
        <time>2025-11-06T11:51:56Z</time>
      </trkpt>
      <trkpt lat="48.80748" lon="2.22699">
        <ele>150.74</ele>
        <time>2025-11-06T11:52:13Z</time>
      </trkpt>
      <trkpt lat="48.8075" lon="2.22699">
        <ele>150.57</ele>
        <time>2025-11-06T11:52:15Z</time>
      </trkpt>
      <trkpt lat="48.80757" lon="2.227">
        <ele>150.19</ele>
        <time>2025-11-06T11:52:21Z</time>
      </trkpt>
      <trkpt lat="48.80764" lon="2.22704">
        <ele>150.73</ele>
        <time>2025-11-06T11:52:33Z</time>
      </trkpt>
      <trkpt lat="48.8077" lon="2.22706">
        <ele>150.36</ele>
        <time>2025-11-06T11:52:38Z</time>
      </trkpt>
      <trkpt lat="48.80778" lon="2.22704">
        <ele>150.49</ele>
        <time>2025-11-06T11:52:49Z</time>
      </trkpt>
      <trkpt lat="48.80795" lon="2.2271">
        <ele>149.18</ele>
        <time>2025-11-06T11:53:03Z</time>
      </trkpt>
      <trkpt lat="48.80799" lon="2.22713">
        <ele>149.53</ele>
        <time>2025-11-06T11:53:06Z</time>
      </trkpt>
      <trkpt lat="48.80808" lon="2.22713">
        <ele>149.43</ele>
        <time>2025-11-06T11:53:17Z</time>
      </trkpt>
      <trkpt lat="48.80815" lon="2.22715">
        <ele>149.06</ele>
        <time>2025-11-06T11:53:24Z</time>
      </trkpt>
      <trkpt lat="48.80819" lon="2.22715">
        <ele>147.78</ele>
        <time>2025-11-06T11:53:29Z</time>
      </trkpt>
      <trkpt lat="48.80825" lon="2.22719">
        <ele>149.02</ele>
        <time>2025-11-06T11:53:38Z</time>
      </trkpt>
      <trkpt lat="48.80826" lon="2.22719">
        <ele>149.01</ele>
        <time>2025-11-06T11:53:39Z</time>
      </trkpt>
      <trkpt lat="48.80827" lon="2.2272">
        <ele>148.83</ele>
        <time>2025-11-06T11:53:40Z</time>
      </trkpt>
      <trkpt lat="48.80836" lon="2.22721">
        <ele>148.88</ele>
        <time>2025-11-06T11:53:51Z</time>
      </trkpt>
      <trkpt lat="48.80838" lon="2.22719">
        <ele>149.01</ele>
        <time>2025-11-06T11:53:55Z</time>
      </trkpt>
      <trkpt lat="48.80857" lon="2.22716">
        <ele>148.93</ele>
        <time>2025-11-06T11:54:07Z</time>
      </trkpt>
      <trkpt lat="48.80863" lon="2.22718">
        <ele>149.45</ele>
        <time>2025-11-06T11:54:18Z</time>
      </trkpt>
      <trkpt lat="48.80866" lon="2.22722">
        <ele>148.9</ele>
        <time>2025-11-06T11:54:24Z</time>
      </trkpt>
      <trkpt lat="48.80878" lon="2.22732">
        <ele>147.58</ele>
        <time>2025-11-06T11:54:34Z</time>
      </trkpt>
      <trkpt lat="48.80896" lon="2.22741">
        <ele>147.63</ele>
        <time>2025-11-06T11:54:42Z</time>
      </trkpt>
      <trkpt lat="48.80914" lon="2.22744">
        <ele>147.6</ele>
        <time>2025-11-06T11:54:59Z</time>
      </trkpt>
      <trkpt lat="48.80925" lon="2.22748">
        <ele>147.32</ele>
        <time>2025-11-06T11:55:12Z</time>
      </trkpt>
      <trkpt lat="48.80938" lon="2.22749">
        <ele>147.06</ele>
        <time>2025-11-06T11:55:28Z</time>
      </trkpt>
      <trkpt lat="48.80948" lon="2.22754">
        <ele>147.71</ele>
        <time>2025-11-06T11:55:40Z</time>
      </trkpt>
      <trkpt lat="48.80969" lon="2.22761">
        <ele>147.79</ele>
        <time>2025-11-06T11:55:57Z</time>
      </trkpt>
      <trkpt lat="48.80995" lon="2.22768">
        <ele>147.18</ele>
        <time>2025-11-06T11:56:14Z</time>
      </trkpt>
      <trkpt lat="48.81003" lon="2.22782">
        <ele>146.78</ele>
        <time>2025-11-06T11:56:31Z</time>
      </trkpt>
      <trkpt lat="48.81003" lon="2.22787">
        <ele>146.66</ele>
        <time>2025-11-06T11:56:46Z</time>
      </trkpt>
      <trkpt lat="48.80991" lon="2.22785">
        <ele>147.24</ele>
        <time>2025-11-06T11:57:02Z</time>
      </trkpt>
      <trkpt lat="48.80989" lon="2.22787">
        <ele>147.3</ele>
        <time>2025-11-06T11:57:05Z</time>
      </trkpt>
      <trkpt lat="48.80989" lon="2.2279">
        <ele>147.13</ele>
        <time>2025-11-06T11:57:27Z</time>
      </trkpt>
      <trkpt lat="48.80999" lon="2.22789">
        <ele>146.8</ele>
        <time>2025-11-06T11:57:44Z</time>
      </trkpt>
      <trkpt lat="48.81007" lon="2.22791">
        <ele>146.88</ele>
        <time>2025-11-06T11:57:55Z</time>
      </trkpt>
      <trkpt lat="48.81011" lon="2.22804">
        <ele>146.46</ele>
        <time>2025-11-06T11:58:08Z</time>
      </trkpt>
      <trkpt lat="48.81014" lon="2.22806">
        <ele>146.64</ele>
        <time>2025-11-06T11:58:12Z</time>
      </trkpt>
      <trkpt lat="48.81016" lon="2.22809">
        <ele>146.57</ele>
        <time>2025-11-06T11:58:15Z</time>
      </trkpt>
      <trkpt lat="48.81022" lon="2.22819">
        <ele>146.7</ele>
        <time>2025-11-06T11:58:27Z</time>
      </trkpt>
      <trkpt lat="48.81021" lon="2.22834">
        <ele>145.69</ele>
        <time>2025-11-06T11:58:37Z</time>
      </trkpt>
      <trkpt lat="48.81019" lon="2.22843">
        <ele>145.85</ele>
        <time>2025-11-06T11:58:44Z</time>
      </trkpt>
      <trkpt lat="48.81024" lon="2.22871">
        <ele>145.69</ele>
        <time>2025-11-06T11:59:01Z</time>
      </trkpt>
      <trkpt lat="48.8103" lon="2.22901">
        <ele>144.04</ele>
        <time>2025-11-06T11:59:20Z</time>
      </trkpt>
      <trkpt lat="48.8103" lon="2.22926">
        <ele>143.27</ele>
        <time>2025-11-06T11:59:38Z</time>
      </trkpt>
      <trkpt lat="48.81032" lon="2.22938">
        <ele>142.51</ele>
        <time>2025-11-06T11:59:51Z</time>
      </trkpt>
      <trkpt lat="48.81032" lon="2.22968">
        <ele>141.62</ele>
        <time>2025-11-06T12:00:09Z</time>
      </trkpt>
      <trkpt lat="48.81036" lon="2.22998">
        <ele>140.24</ele>
        <time>2025-11-06T12:00:27Z</time>
      </trkpt>
      <trkpt lat="48.81039" lon="2.23011">
        <ele>139.47</ele>
        <time>2025-11-06T12:00:34Z</time>
      </trkpt>
      <trkpt lat="48.8105" lon="2.23021">
        <ele>137.87</ele>
        <time>2025-11-06T12:00:50Z</time>
      </trkpt>
      <trkpt lat="48.81061" lon="2.23019">
        <ele>136.93</ele>
        <time>2025-11-06T12:00:59Z</time>
      </trkpt>
      <trkpt lat="48.81071" lon="2.23016">
        <ele>135.48</ele>
        <time>2025-11-06T12:01:08Z</time>
      </trkpt>
      <trkpt lat="48.81079" lon="2.23013">
        <ele>134.87</ele>
        <time>2025-11-06T12:01:16Z</time>
      </trkpt>
      <trkpt lat="48.81087" lon="2.23012">
        <ele>134.16</ele>
        <time>2025-11-06T12:01:24Z</time>
      </trkpt>
      <trkpt lat="48.811" lon="2.2301">
        <ele>133.36</ele>
        <time>2025-11-06T12:01:36Z</time>
      </trkpt>
      <trkpt lat="48.8111" lon="2.23008">
        <ele>132.19</ele>
        <time>2025-11-06T12:01:46Z</time>
      </trkpt>
      <trkpt lat="48.8112" lon="2.23007">
        <ele>131.37</ele>
        <time>2025-11-06T12:01:53Z</time>
      </trkpt>
      <trkpt lat="48.8113" lon="2.23006">
        <ele>130.91</ele>
        <time>2025-11-06T12:02:00Z</time>
      </trkpt>
      <trkpt lat="48.81135" lon="2.23005">
        <ele>130.39</ele>
        <time>2025-11-06T12:02:04Z</time>
      </trkpt>
      <trkpt lat="48.81144" lon="2.23005">
        <ele>129.92</ele>
        <time>2025-11-06T12:02:15Z</time>
      </trkpt>
      <trkpt lat="48.81149" lon="2.23002">
        <ele>128.27</ele>
        <time>2025-11-06T12:02:24Z</time>
      </trkpt>
      <trkpt lat="48.81154" lon="2.23">
        <ele>127.99</ele>
        <time>2025-11-06T12:02:28Z</time>
      </trkpt>
      <trkpt lat="48.81158" lon="2.22997">
        <ele>127.56</ele>
        <time>2025-11-06T12:02:34Z</time>
      </trkpt>
      <trkpt lat="48.81169" lon="2.22993">
        <ele>126.78</ele>
        <time>2025-11-06T12:02:41Z</time>
      </trkpt>
      <trkpt lat="48.81172" lon="2.22993">
        <ele>127.13</ele>
        <time>2025-11-06T12:02:42Z</time>
      </trkpt>
      <trkpt lat="48.81187" lon="2.23007">
        <ele>126.8</ele>
        <time>2025-11-06T12:02:53Z</time>
      </trkpt>
      <trkpt lat="48.8119" lon="2.23009">
        <ele>125.45</ele>
        <time>2025-11-06T12:03:08Z</time>
      </trkpt>
      <trkpt lat="48.81191" lon="2.23014">
        <ele>125.98</ele>
        <time>2025-11-06T12:03:15Z</time>
      </trkpt>
      <trkpt lat="48.81183" lon="2.23033">
        <ele>125.7</ele>
        <time>2025-11-06T12:03:30Z</time>
      </trkpt>
      <trkpt lat="48.8118" lon="2.23034">
        <ele>125.88</ele>
        <time>2025-11-06T12:03:33Z</time>
      </trkpt>
      <trkpt lat="48.81178" lon="2.23035">
        <ele>125.84</ele>
        <time>2025-11-06T12:03:35Z</time>
      </trkpt>
      <trkpt lat="48.81171" lon="2.23043">
        <ele>126.12</ele>
        <time>2025-11-06T12:03:44Z</time>
      </trkpt>
      <trkpt lat="48.81164" lon="2.23044">
        <ele>125.94</ele>
        <time>2025-11-06T12:03:54Z</time>
      </trkpt>
      <trkpt lat="48.81163" lon="2.23044">
        <ele>125.94</ele>
        <time>2025-11-06T12:04:00Z</time>
      </trkpt>
      <trkpt lat="48.8116" lon="2.23046">
        <ele>125.91</ele>
        <time>2025-11-06T12:04:04Z</time>
      </trkpt>
      <trkpt lat="48.81152" lon="2.23051">
        <ele>126.17</ele>
        <time>2025-11-06T12:04:13Z</time>
      </trkpt>
      <trkpt lat="48.81144" lon="2.23056">
        <ele>126.99</ele>
        <time>2025-11-06T12:04:21Z</time>
      </trkpt>
      <trkpt lat="48.81137" lon="2.23062">
        <ele>127.28</ele>
        <time>2025-11-06T12:04:30Z</time>
      </trkpt>
      <trkpt lat="48.81136" lon="2.23062">
        <ele>126.92</ele>
        <time>2025-11-06T12:04:32Z</time>
      </trkpt>
      <trkpt lat="48.81127" lon="2.2306">
        <ele>127.47</ele>
        <time>2025-11-06T12:04:43Z</time>
      </trkpt>
      <trkpt lat="48.81122" lon="2.23064">
        <ele>127.51</ele>
        <time>2025-11-06T12:04:48Z</time>
      </trkpt>
      <trkpt lat="48.81121" lon="2.23065">
        <ele>127.11</ele>
        <time>2025-11-06T12:04:50Z</time>
      </trkpt>
      <trkpt lat="48.81118" lon="2.23068">
        <ele>127.7</ele>
        <time>2025-11-06T12:04:53Z</time>
      </trkpt>
      <trkpt lat="48.81115" lon="2.2307">
        <ele>128.01</ele>
        <time>2025-11-06T12:04:57Z</time>
      </trkpt>
      <trkpt lat="48.81112" lon="2.23073">
        <ele>128.13</ele>
        <time>2025-11-06T12:05:00Z</time>
      </trkpt>
      <trkpt lat="48.81103" lon="2.23085">
        <ele>128.2</ele>
        <time>2025-11-06T12:05:09Z</time>
      </trkpt>
      <trkpt lat="48.81094" lon="2.23096">
        <ele>128</ele>
        <time>2025-11-06T12:05:20Z</time>
      </trkpt>
      <trkpt lat="48.81092" lon="2.23097">
        <ele>128.09</ele>
        <time>2025-11-06T12:05:21Z</time>
      </trkpt>
      <trkpt lat="48.81089" lon="2.23099">
        <ele>128.06</ele>
        <time>2025-11-06T12:05:24Z</time>
      </trkpt>
      <trkpt lat="48.81078" lon="2.23101">
        <ele>128.27</ele>
        <time>2025-11-06T12:05:33Z</time>
      </trkpt>
      <trkpt lat="48.81059" lon="2.231">
        <ele>128.36</ele>
        <time>2025-11-06T12:05:50Z</time>
      </trkpt>
      <trkpt lat="48.81049" lon="2.23104">
        <ele>127.93</ele>
        <time>2025-11-06T12:05:59Z</time>
      </trkpt>
      <trkpt lat="48.81037" lon="2.23103">
        <ele>128.08</ele>
        <time>2025-11-06T12:06:12Z</time>
      </trkpt>
      <trkpt lat="48.81032" lon="2.23102">
        <ele>129.65</ele>
        <time>2025-11-06T12:06:19Z</time>
      </trkpt>
      <trkpt lat="48.81023" lon="2.23104">
        <ele>129.71</ele>
        <time>2025-11-06T12:06:31Z</time>
      </trkpt>
      <trkpt lat="48.81016" lon="2.231">
        <ele>130.24</ele>
        <time>2025-11-06T12:06:40Z</time>
      </trkpt>
      <trkpt lat="48.81011" lon="2.23104">
        <ele>130.37</ele>
        <time>2025-11-06T12:06:47Z</time>
      </trkpt>
      <trkpt lat="48.81007" lon="2.23105">
        <ele>130.56</ele>
        <time>2025-11-06T12:06:53Z</time>
      </trkpt>
      <trkpt lat="48.81004" lon="2.23104">
        <ele>130.39</ele>
        <time>2025-11-06T12:06:55Z</time>
      </trkpt>
      <trkpt lat="48.81002" lon="2.23103">
        <ele>130.43</ele>
        <time>2025-11-06T12:06:57Z</time>
      </trkpt>
      <trkpt lat="48.81" lon="2.23103">
        <ele>130.69</ele>
        <time>2025-11-06T12:07:00Z</time>
      </trkpt>
      <trkpt lat="48.80991" lon="2.23104">
        <ele>130.64</ele>
        <time>2025-11-06T12:07:06Z</time>
      </trkpt>
      <trkpt lat="48.80988" lon="2.23104">
        <ele>131.2</ele>
        <time>2025-11-06T12:07:10Z</time>
      </trkpt>
      <trkpt lat="48.80972" lon="2.23104">
        <ele>131.45</ele>
        <time>2025-11-06T12:07:23Z</time>
      </trkpt>
      <trkpt lat="48.80962" lon="2.23108">
        <ele>132.02</ele>
        <time>2025-11-06T12:07:31Z</time>
      </trkpt>
      <trkpt lat="48.80954" lon="2.23118">
        <ele>131.88</ele>
        <time>2025-11-06T12:07:37Z</time>
      </trkpt>
      <trkpt lat="48.8095" lon="2.23136">
        <ele>131.78</ele>
        <time>2025-11-06T12:07:45Z</time>
      </trkpt>
      <trkpt lat="48.80942" lon="2.23165">
        <ele>132.02</ele>
        <time>2025-11-06T12:07:54Z</time>
      </trkpt>
      <trkpt lat="48.8094" lon="2.23178">
        <ele>132.36</ele>
        <time>2025-11-06T12:08:05Z</time>
      </trkpt>
      <trkpt lat="48.80937" lon="2.23183">
        <ele>132.42</ele>
        <time>2025-11-06T12:08:13Z</time>
      </trkpt>
      <trkpt lat="48.80932" lon="2.23193">
        <ele>132.54</ele>
        <time>2025-11-06T12:08:28Z</time>
      </trkpt>
      <trkpt lat="48.80932" lon="2.23196">
        <ele>132.47</ele>
        <time>2025-11-06T12:08:42Z</time>
      </trkpt>
      <trkpt lat="48.80932" lon="2.23197">
        <ele>132.64</ele>
        <time>2025-11-06T12:08:44Z</time>
      </trkpt>
      <trkpt lat="48.80925" lon="2.23198">
        <ele>132.45</ele>
        <time>2025-11-06T12:09:03Z</time>
      </trkpt>
      <trkpt lat="48.80921" lon="2.23188">
        <ele>132.67</ele>
        <time>2025-11-06T12:09:14Z</time>
      </trkpt>
      <trkpt lat="48.80917" lon="2.23185">
        <ele>132.39</ele>
        <time>2025-11-06T12:09:18Z</time>
      </trkpt>
      <trkpt lat="48.809" lon="2.23164">
        <ele>132.86</ele>
        <time>2025-11-06T12:09:37Z</time>
      </trkpt>
      <trkpt lat="48.80888" lon="2.23153">
        <ele>133.38</ele>
        <time>2025-11-06T12:09:50Z</time>
      </trkpt>
      <trkpt lat="48.80879" lon="2.23145">
        <ele>133.41</ele>
        <time>2025-11-06T12:10:00Z</time>
      </trkpt>
      <trkpt lat="48.80867" lon="2.23136">
        <ele>134.13</ele>
        <time>2025-11-06T12:10:15Z</time>
      </trkpt>
      <trkpt lat="48.80864" lon="2.23135">
        <ele>134.04</ele>
        <time>2025-11-06T12:10:22Z</time>
      </trkpt>
      <trkpt lat="48.80855" lon="2.23137">
        <ele>133.14</ele>
        <time>2025-11-06T12:10:37Z</time>
      </trkpt>
      <trkpt lat="48.80846" lon="2.23135">
        <ele>133.64</ele>
        <time>2025-11-06T12:12:44Z</time>
      </trkpt>
      <trkpt lat="48.80842" lon="2.23135">
        <ele>134.21</ele>
        <time>2025-11-06T12:13:14Z</time>
      </trkpt>
      <trkpt lat="48.8084" lon="2.23137">
        <ele>134.1</ele>
        <time>2025-11-06T12:13:39Z</time>
      </trkpt>
      <trkpt lat="48.80842" lon="2.23136">
        <ele>134.32</ele>
        <time>2025-11-06T12:14:17Z</time>
      </trkpt>
      <trkpt lat="48.80844" lon="2.23138">
        <ele>133.66</ele>
        <time>2025-11-06T12:14:47Z</time>
      </trkpt>
      <trkpt lat="48.80845" lon="2.2314">
        <ele>134.36</ele>
        <time>2025-11-06T12:15:28Z</time>
      </trkpt>
      <trkpt lat="48.80865" lon="2.23144">
        <ele>136.17</ele>
        <time>2025-11-06T12:34:10Z</time>
      </trkpt>
      <trkpt lat="48.80873" lon="2.23153">
        <ele>136.31</ele>
        <time>2025-11-06T12:35:42Z</time>
      </trkpt>
      <trkpt lat="48.80882" lon="2.23154">
        <ele>136.11</ele>
        <time>2025-11-06T12:35:58Z</time>
      </trkpt>
      <trkpt lat="48.80892" lon="2.23165">
        <ele>135.62</ele>
        <time>2025-11-06T12:36:10Z</time>
      </trkpt>
      <trkpt lat="48.80904" lon="2.23176">
        <ele>136.14</ele>
        <time>2025-11-06T12:36:26Z</time>
      </trkpt>
      <trkpt lat="48.80921" lon="2.23182">
        <ele>135.02</ele>
        <time>2025-11-06T12:36:37Z</time>
      </trkpt>
      <trkpt lat="48.80927" lon="2.23186">
        <ele>135.53</ele>
        <time>2025-11-06T12:36:50Z</time>
      </trkpt>
      <trkpt lat="48.8093" lon="2.23189">
        <ele>135.12</ele>
        <time>2025-11-06T12:37:02Z</time>
      </trkpt>
      <trkpt lat="48.80939" lon="2.2319">
        <ele>135.06</ele>
        <time>2025-11-06T12:37:16Z</time>
      </trkpt>
      <trkpt lat="48.8094" lon="2.23188">
        <ele>134.85</ele>
        <time>2025-11-06T12:37:22Z</time>
      </trkpt>
      <trkpt lat="48.80946" lon="2.23174">
        <ele>134.48</ele>
        <time>2025-11-06T12:37:34Z</time>
      </trkpt>
      <trkpt lat="48.80966" lon="2.23163">
        <ele>133.76</ele>
        <time>2025-11-06T12:37:51Z</time>
      </trkpt>
      <trkpt lat="48.80972" lon="2.23159">
        <ele>132.92</ele>
        <time>2025-11-06T12:38:02Z</time>
      </trkpt>
      <trkpt lat="48.80982" lon="2.23154">
        <ele>133.07</ele>
        <time>2025-11-06T12:38:12Z</time>
      </trkpt>
      <trkpt lat="48.80993" lon="2.23145">
        <ele>132.18</ele>
        <time>2025-11-06T12:38:23Z</time>
      </trkpt>
      <trkpt lat="48.81004" lon="2.23142">
        <ele>131.56</ele>
        <time>2025-11-06T12:38:35Z</time>
      </trkpt>
      <trkpt lat="48.81014" lon="2.23145">
        <ele>131.74</ele>
        <time>2025-11-06T12:38:50Z</time>
      </trkpt>
      <trkpt lat="48.81014" lon="2.23143">
        <ele>131.66</ele>
        <time>2025-11-06T12:38:55Z</time>
      </trkpt>
      <trkpt lat="48.81018" lon="2.23138">
        <ele>131.16</ele>
        <time>2025-11-06T12:39:08Z</time>
      </trkpt>
      <trkpt lat="48.81027" lon="2.23141">
        <ele>130.53</ele>
        <time>2025-11-06T12:39:24Z</time>
      </trkpt>
      <trkpt lat="48.81037" lon="2.2314">
        <ele>129.36</ele>
        <time>2025-11-06T12:39:37Z</time>
      </trkpt>
      <trkpt lat="48.81038" lon="2.2314">
        <ele>129.97</ele>
        <time>2025-11-06T12:39:39Z</time>
      </trkpt>
      <trkpt lat="48.81047" lon="2.23136">
        <ele>128.91</ele>
        <time>2025-11-06T12:39:49Z</time>
      </trkpt>
      <trkpt lat="48.81056" lon="2.23135">
        <ele>128.34</ele>
        <time>2025-11-06T12:40:00Z</time>
      </trkpt>
      <trkpt lat="48.81074" lon="2.23129">
        <ele>127.28</ele>
        <time>2025-11-06T12:40:21Z</time>
      </trkpt>
      <trkpt lat="48.81084" lon="2.23126">
        <ele>126.39</ele>
        <time>2025-11-06T12:40:33Z</time>
      </trkpt>
      <trkpt lat="48.81095" lon="2.23122">
        <ele>125.56</ele>
        <time>2025-11-06T12:40:48Z</time>
      </trkpt>
      <trkpt lat="48.81104" lon="2.2312">
        <ele>125.26</ele>
        <time>2025-11-06T12:40:56Z</time>
      </trkpt>
      <trkpt lat="48.8112" lon="2.23115">
        <ele>123.22</ele>
        <time>2025-11-06T12:41:13Z</time>
      </trkpt>
      <trkpt lat="48.81134" lon="2.23111">
        <ele>122.54</ele>
        <time>2025-11-06T12:41:30Z</time>
      </trkpt>
      <trkpt lat="48.81153" lon="2.23105">
        <ele>120.78</ele>
        <time>2025-11-06T12:41:49Z</time>
      </trkpt>
      <trkpt lat="48.81173" lon="2.23101">
        <ele>120.06</ele>
        <time>2025-11-06T12:42:06Z</time>
      </trkpt>
      <trkpt lat="48.81192" lon="2.23093">
        <ele>118.78</ele>
        <time>2025-11-06T12:42:26Z</time>
      </trkpt>
      <trkpt lat="48.81201" lon="2.23092">
        <ele>118.58</ele>
        <time>2025-11-06T12:42:32Z</time>
      </trkpt>
      <trkpt lat="48.81218" lon="2.23088">
        <ele>116.96</ele>
        <time>2025-11-06T12:42:49Z</time>
      </trkpt>
      <trkpt lat="48.81236" lon="2.23086">
        <ele>116.52</ele>
        <time>2025-11-06T12:43:06Z</time>
      </trkpt>
      <trkpt lat="48.81252" lon="2.2308">
        <ele>114.89</ele>
        <time>2025-11-06T12:43:23Z</time>
      </trkpt>
      <trkpt lat="48.81265" lon="2.23078">
        <ele>113.58</ele>
        <time>2025-11-06T12:43:38Z</time>
      </trkpt>
      <trkpt lat="48.81279" lon="2.23073">
        <ele>112.86</ele>
        <time>2025-11-06T12:43:55Z</time>
      </trkpt>
      <trkpt lat="48.81297" lon="2.23068">
        <ele>110.97</ele>
        <time>2025-11-06T12:44:15Z</time>
      </trkpt>
      <trkpt lat="48.81315" lon="2.23063">
        <ele>109.56</ele>
        <time>2025-11-06T12:44:32Z</time>
      </trkpt>
      <trkpt lat="48.81332" lon="2.23061">
        <ele>107.82</ele>
        <time>2025-11-06T12:44:49Z</time>
      </trkpt>
      <trkpt lat="48.81342" lon="2.2306">
        <ele>107.42</ele>
        <time>2025-11-06T12:44:58Z</time>
      </trkpt>
      <trkpt lat="48.81344" lon="2.23057">
        <ele>107</ele>
        <time>2025-11-06T12:45:12Z</time>
      </trkpt>
      <trkpt lat="48.81343" lon="2.23057">
        <ele>106.87</ele>
        <time>2025-11-06T12:45:13Z</time>
      </trkpt>
      <trkpt lat="48.81353" lon="2.23057">
        <ele>106.03</ele>
        <time>2025-11-06T12:45:21Z</time>
      </trkpt>
      <trkpt lat="48.81367" lon="2.23054">
        <ele>105.68</ele>
        <time>2025-11-06T12:45:34Z</time>
      </trkpt>
      <trkpt lat="48.81381" lon="2.23048">
        <ele>103.43</ele>
        <time>2025-11-06T12:45:53Z</time>
      </trkpt>
      <trkpt lat="48.81385" lon="2.23046">
        <ele>103.07</ele>
        <time>2025-11-06T12:46:08Z</time>
      </trkpt>
      <trkpt lat="48.81391" lon="2.23045">
        <ele>102.16</ele>
        <time>2025-11-06T12:46:23Z</time>
      </trkpt>
      <trkpt lat="48.81401" lon="2.23043">
        <ele>100.34</ele>
        <time>2025-11-06T12:46:35Z</time>
      </trkpt>
      <trkpt lat="48.81406" lon="2.23042">
        <ele>100.47</ele>
        <time>2025-11-06T12:46:45Z</time>
      </trkpt>
      <trkpt lat="48.81415" lon="2.23042">
        <ele>100.25</ele>
        <time>2025-11-06T12:46:59Z</time>
      </trkpt>
      <trkpt lat="48.81423" lon="2.23041">
        <ele>99.09</ele>
        <time>2025-11-06T12:47:07Z</time>
      </trkpt>
      <trkpt lat="48.81424" lon="2.2304">
        <ele>98.98</ele>
        <time>2025-11-06T12:47:08Z</time>
      </trkpt>
      <trkpt lat="48.81435" lon="2.23038">
        <ele>98.35</ele>
        <time>2025-11-06T12:47:19Z</time>
      </trkpt>
      <trkpt lat="48.8144" lon="2.23036">
        <ele>97.85</ele>
        <time>2025-11-06T12:47:30Z</time>
      </trkpt>
      <trkpt lat="48.8145" lon="2.23032">
        <ele>96.49</ele>
        <time>2025-11-06T12:47:51Z</time>
      </trkpt>
      <trkpt lat="48.81466" lon="2.2303">
        <ele>95.32</ele>
        <time>2025-11-06T12:48:09Z</time>
      </trkpt>
      <trkpt lat="48.81481" lon="2.23027">
        <ele>93.84</ele>
        <time>2025-11-06T12:48:26Z</time>
      </trkpt>
      <trkpt lat="48.81493" lon="2.23023">
        <ele>92.57</ele>
        <time>2025-11-06T12:48:42Z</time>
      </trkpt>
      <trkpt lat="48.81508" lon="2.23019">
        <ele>90.85</ele>
        <time>2025-11-06T12:48:58Z</time>
      </trkpt>
      <trkpt lat="48.8151" lon="2.23018">
        <ele>91.04</ele>
        <time>2025-11-06T12:48:59Z</time>
      </trkpt>
      <trkpt lat="48.81521" lon="2.23013">
        <ele>89.7</ele>
        <time>2025-11-06T12:49:12Z</time>
      </trkpt>
      <trkpt lat="48.81537" lon="2.23007">
        <ele>88.32</ele>
        <time>2025-11-06T12:49:29Z</time>
      </trkpt>
      <trkpt lat="48.8155" lon="2.23006">
        <ele>87.39</ele>
        <time>2025-11-06T12:49:45Z</time>
      </trkpt>
      <trkpt lat="48.81561" lon="2.23006">
        <ele>86.24</ele>
        <time>2025-11-06T12:49:56Z</time>
      </trkpt>
      <trkpt lat="48.81571" lon="2.23002">
        <ele>85.35</ele>
        <time>2025-11-06T12:50:12Z</time>
      </trkpt>
      <trkpt lat="48.81589" lon="2.22997">
        <ele>83.63</ele>
        <time>2025-11-06T12:50:29Z</time>
      </trkpt>
      <trkpt lat="48.81603" lon="2.22994">
        <ele>82.54</ele>
        <time>2025-11-06T12:50:44Z</time>
      </trkpt>
      <trkpt lat="48.81618" lon="2.22989">
        <ele>81.13</ele>
        <time>2025-11-06T12:51:00Z</time>
      </trkpt>
      <trkpt lat="48.81633" lon="2.22986">
        <ele>80.43</ele>
        <time>2025-11-06T12:51:15Z</time>
      </trkpt>
      <trkpt lat="48.81648" lon="2.22982">
        <ele>78.62</ele>
        <time>2025-11-06T12:51:31Z</time>
      </trkpt>
      <trkpt lat="48.8166" lon="2.22977">
        <ele>77.97</ele>
        <time>2025-11-06T12:51:42Z</time>
      </trkpt>
      <trkpt lat="48.81679" lon="2.22973">
        <ele>76.56</ele>
        <time>2025-11-06T12:51:57Z</time>
      </trkpt>
      <trkpt lat="48.81683" lon="2.22972">
        <ele>74.71</ele>
        <time>2025-11-06T12:52:01Z</time>
      </trkpt>
      <trkpt lat="48.81701" lon="2.22968">
        <ele>74.92</ele>
        <time>2025-11-06T12:52:18Z</time>
      </trkpt>
      <trkpt lat="48.81705" lon="2.22968">
        <ele>74.11</ele>
        <time>2025-11-06T12:52:28Z</time>
      </trkpt>
      <trkpt lat="48.81708" lon="2.22971">
        <ele>73.85</ele>
        <time>2025-11-06T12:52:45Z</time>
      </trkpt>
      <trkpt lat="48.81716" lon="2.22969">
        <ele>73.31</ele>
        <time>2025-11-06T12:53:08Z</time>
      </trkpt>
      <trkpt lat="48.81729" lon="2.22968">
        <ele>72.44</ele>
        <time>2025-11-06T12:53:23Z</time>
      </trkpt>
      <trkpt lat="48.81732" lon="2.22966">
        <ele>73.61</ele>
        <time>2025-11-06T12:53:32Z</time>
      </trkpt>
      <trkpt lat="48.81735" lon="2.22968">
        <ele>72.06</ele>
        <time>2025-11-06T12:53:39Z</time>
      </trkpt>
      <trkpt lat="48.81753" lon="2.22954">
        <ele>71.94</ele>
        <time>2025-11-06T12:53:49Z</time>
      </trkpt>
      <trkpt lat="48.81756" lon="2.22954">
        <ele>71.62</ele>
        <time>2025-11-06T12:53:51Z</time>
      </trkpt>
      <trkpt lat="48.81757" lon="2.22953">
        <ele>72.22</ele>
        <time>2025-11-06T12:53:53Z</time>
      </trkpt>
      <trkpt lat="48.8176" lon="2.22951">
        <ele>70.48</ele>
        <time>2025-11-06T12:53:55Z</time>
      </trkpt>
      <trkpt lat="48.81761" lon="2.22951">
        <ele>70.46</ele>
        <time>2025-11-06T12:53:56Z</time>
      </trkpt>
      <trkpt lat="48.81766" lon="2.22937">
        <ele>70.97</ele>
        <time>2025-11-06T12:54:09Z</time>
      </trkpt>
      <trkpt lat="48.81771" lon="2.22929">
        <ele>70.37</ele>
        <time>2025-11-06T12:54:16Z</time>
      </trkpt>
      <trkpt lat="48.81778" lon="2.22914">
        <ele>69.89</ele>
        <time>2025-11-06T12:54:25Z</time>
      </trkpt>
      <trkpt lat="48.81781" lon="2.2291">
        <ele>69.74</ele>
        <time>2025-11-06T12:54:28Z</time>
      </trkpt>
      <trkpt lat="48.81782" lon="2.22904">
        <ele>69.68</ele>
        <time>2025-11-06T12:54:31Z</time>
      </trkpt>
      <trkpt lat="48.81788" lon="2.22889">
        <ele>68.92</ele>
        <time>2025-11-06T12:54:41Z</time>
      </trkpt>
      <trkpt lat="48.81789" lon="2.22885">
        <ele>68.58</ele>
        <time>2025-11-06T12:54:43Z</time>
      </trkpt>
      <trkpt lat="48.81801" lon="2.22862">
        <ele>67.91</ele>
        <time>2025-11-06T12:54:59Z</time>
      </trkpt>
      <trkpt lat="48.81802" lon="2.22862">
        <ele>67.85</ele>
        <time>2025-11-06T12:55:01Z</time>
      </trkpt>
      <trkpt lat="48.81807" lon="2.22852">
        <ele>67.4</ele>
        <time>2025-11-06T12:55:07Z</time>
      </trkpt>
      <trkpt lat="48.81811" lon="2.22843">
        <ele>67.91</ele>
        <time>2025-11-06T12:55:14Z</time>
      </trkpt>
      <trkpt lat="48.81818" lon="2.22837">
        <ele>66.6</ele>
        <time>2025-11-06T12:55:27Z</time>
      </trkpt>
      <trkpt lat="48.81819" lon="2.22837">
        <ele>66.97</ele>
        <time>2025-11-06T12:55:28Z</time>
      </trkpt>
      <trkpt lat="48.81821" lon="2.22847">
        <ele>66.28</ele>
        <time>2025-11-06T12:55:43Z</time>
      </trkpt>
      <trkpt lat="48.81823" lon="2.22856">
        <ele>66.54</ele>
        <time>2025-11-06T12:55:50Z</time>
      </trkpt>
      <trkpt lat="48.81827" lon="2.22871">
        <ele>66.31</ele>
        <time>2025-11-06T12:56:01Z</time>
      </trkpt>
      <trkpt lat="48.81828" lon="2.22884">
        <ele>66.45</ele>
        <time>2025-11-06T12:56:08Z</time>
      </trkpt>
      <trkpt lat="48.81831" lon="2.22906">
        <ele>65.8</ele>
        <time>2025-11-06T12:56:20Z</time>
      </trkpt>
      <trkpt lat="48.81836" lon="2.22923">
        <ele>65.66</ele>
        <time>2025-11-06T12:56:33Z</time>
      </trkpt>
      <trkpt lat="48.81837" lon="2.22927">
        <ele>65.86</ele>
        <time>2025-11-06T12:56:36Z</time>
      </trkpt>
      <trkpt lat="48.81839" lon="2.22935">
        <ele>65.88</ele>
        <time>2025-11-06T12:56:40Z</time>
      </trkpt>
      <trkpt lat="48.8184" lon="2.22936">
        <ele>65.45</ele>
        <time>2025-11-06T12:56:42Z</time>
      </trkpt>
      <trkpt lat="48.81851" lon="2.22935">
        <ele>65.35</ele>
        <time>2025-11-06T12:56:54Z</time>
      </trkpt>
      <trkpt lat="48.81855" lon="2.22934">
        <ele>64.87</ele>
        <time>2025-11-06T12:57:01Z</time>
      </trkpt>
      <trkpt lat="48.81867" lon="2.22943">
        <ele>64.59</ele>
        <time>2025-11-06T12:57:12Z</time>
      </trkpt>
      <trkpt lat="48.81868" lon="2.22947">
        <ele>65.12</ele>
        <time>2025-11-06T12:57:14Z</time>
      </trkpt>
      <trkpt lat="48.81878" lon="2.22963">
        <ele>65.32</ele>
        <time>2025-11-06T12:57:26Z</time>
      </trkpt>
      <trkpt lat="48.81891" lon="2.22974">
        <ele>64.69</ele>
        <time>2025-11-06T12:57:41Z</time>
      </trkpt>
      <trkpt lat="48.81897" lon="2.22978">
        <ele>64.63</ele>
        <time>2025-11-06T12:57:55Z</time>
      </trkpt>
      <trkpt lat="48.81901" lon="2.22977">
        <ele>64.35</ele>
        <time>2025-11-06T12:58:07Z</time>
      </trkpt>
      <trkpt lat="48.81901" lon="2.22976">
        <ele>64.49</ele>
        <time>2025-11-06T12:58:08Z</time>
      </trkpt>
      <trkpt lat="48.8191" lon="2.22968">
        <ele>64.88</ele>
        <time>2025-11-06T12:58:19Z</time>
      </trkpt>
      <trkpt lat="48.81915" lon="2.22955">
        <ele>64.31</ele>
        <time>2025-11-06T12:58:31Z</time>
      </trkpt>
      <trkpt lat="48.81929" lon="2.22956">
        <ele>62.47</ele>
        <time>2025-11-06T12:58:46Z</time>
      </trkpt>
      <trkpt lat="48.8194" lon="2.22953">
        <ele>61.93</ele>
        <time>2025-11-06T12:58:56Z</time>
      </trkpt>
      <trkpt lat="48.81944" lon="2.22952">
        <ele>61.4</ele>
        <time>2025-11-06T12:59:01Z</time>
      </trkpt>
      <trkpt lat="48.81957" lon="2.22947">
        <ele>60.37</ele>
        <time>2025-11-06T12:59:13Z</time>
      </trkpt>
      <trkpt lat="48.81959" lon="2.22946">
        <ele>60.42</ele>
        <time>2025-11-06T12:59:15Z</time>
      </trkpt>
      <trkpt lat="48.81974" lon="2.22942">
        <ele>58.75</ele>
        <time>2025-11-06T12:59:29Z</time>
      </trkpt>
      <trkpt lat="48.8198" lon="2.22937">
        <ele>58.03</ele>
        <time>2025-11-06T12:59:39Z</time>
      </trkpt>
      <trkpt lat="48.81982" lon="2.22931">
        <ele>58.22</ele>
        <time>2025-11-06T12:59:54Z</time>
      </trkpt>
      <trkpt lat="48.81982" lon="2.22934">
        <ele>58.09</ele>
        <time>2025-11-06T13:00:13Z</time>
      </trkpt>
      <trkpt lat="48.81982" lon="2.22936">
        <ele>58.1</ele>
        <time>2025-11-06T13:00:32Z</time>
      </trkpt>
      <trkpt lat="48.81986" lon="2.22941">
        <ele>57.58</ele>
        <time>2025-11-06T13:00:51Z</time>
      </trkpt>
      <trkpt lat="48.81991" lon="2.22937">
        <ele>57.79</ele>
        <time>2025-11-06T13:01:03Z</time>
      </trkpt>
      <trkpt lat="48.81997" lon="2.22943">
        <ele>57.56</ele>
        <time>2025-11-06T13:01:19Z</time>
      </trkpt>
      <trkpt lat="48.82004" lon="2.22946">
        <ele>57.21</ele>
        <time>2025-11-06T13:01:27Z</time>
      </trkpt>
      <trkpt lat="48.82012" lon="2.22956">
        <ele>56.59</ele>
        <time>2025-11-06T13:01:38Z</time>
      </trkpt>
      <trkpt lat="48.82018" lon="2.22962">
        <ele>56.44</ele>
        <time>2025-11-06T13:01:55Z</time>
      </trkpt>
      <trkpt lat="48.8202" lon="2.22979">
        <ele>56.03</ele>
        <time>2025-11-06T13:02:10Z</time>
      </trkpt>
      <trkpt lat="48.82023" lon="2.22991">
        <ele>55.03</ele>
        <time>2025-11-06T13:02:22Z</time>
      </trkpt>
      <trkpt lat="48.82026" lon="2.22997">
        <ele>55.13</ele>
        <time>2025-11-06T13:02:35Z</time>
      </trkpt>
      <trkpt lat="48.82031" lon="2.23008">
        <ele>53.89</ele>
        <time>2025-11-06T13:02:52Z</time>
      </trkpt>
      <trkpt lat="48.8204" lon="2.23017">
        <ele>53.08</ele>
        <time>2025-11-06T13:03:07Z</time>
      </trkpt>
      <trkpt lat="48.82044" lon="2.23023">
        <ele>52.56</ele>
        <time>2025-11-06T13:03:15Z</time>
      </trkpt>
      <trkpt lat="48.82048" lon="2.23025">
        <ele>51.32</ele>
        <time>2025-11-06T13:03:19Z</time>
      </trkpt>
      <trkpt lat="48.82057" lon="2.23036">
        <ele>50.35</ele>
        <time>2025-11-06T13:03:32Z</time>
      </trkpt>
      <trkpt lat="48.82058" lon="2.23039">
        <ele>50.8</ele>
        <time>2025-11-06T13:03:34Z</time>
      </trkpt>
      <trkpt lat="48.82067" lon="2.23055">
        <ele>49.47</ele>
        <time>2025-11-06T13:03:50Z</time>
      </trkpt>
      <trkpt lat="48.82075" lon="2.2307">
        <ele>48.04</ele>
        <time>2025-11-06T13:04:04Z</time>
      </trkpt>
      <trkpt lat="48.82079" lon="2.23074">
        <ele>47.19</ele>
        <time>2025-11-06T13:04:13Z</time>
      </trkpt>
      <trkpt lat="48.82088" lon="2.23074">
        <ele>46.3</ele>
        <time>2025-11-06T13:04:23Z</time>
      </trkpt>
      <trkpt lat="48.821" lon="2.2306">
        <ele>44.62</ele>
        <time>2025-11-06T13:04:33Z</time>
      </trkpt>
      <trkpt lat="48.82107" lon="2.23045">
        <ele>43.76</ele>
        <time>2025-11-06T13:04:45Z</time>
      </trkpt>
      <trkpt lat="48.82112" lon="2.23038">
        <ele>42.59</ele>
        <time>2025-11-06T13:04:52Z</time>
      </trkpt>
      <trkpt lat="48.82121" lon="2.23037">
        <ele>41.63</ele>
        <time>2025-11-06T13:05:02Z</time>
      </trkpt>
      <trkpt lat="48.82125" lon="2.23032">
        <ele>41.31</ele>
        <time>2025-11-06T13:05:12Z</time>
      </trkpt>
      <trkpt lat="48.82128" lon="2.23025">
        <ele>40.22</ele>
        <time>2025-11-06T13:05:24Z</time>
      </trkpt>
      <trkpt lat="48.8213" lon="2.23001">
        <ele>38.77</ele>
        <time>2025-11-06T13:05:40Z</time>
      </trkpt>
      <trkpt lat="48.82143" lon="2.22997">
        <ele>36.38</ele>
        <time>2025-11-06T13:06:00Z</time>
      </trkpt>
      <trkpt lat="48.82163" lon="2.22988">
        <ele>34.49</ele>
        <time>2025-11-06T13:06:18Z</time>
      </trkpt>
      <trkpt lat="48.82176" lon="2.2299">
        <ele>32.98</ele>
        <time>2025-11-06T13:06:33Z</time>
      </trkpt>
      <trkpt lat="48.82186" lon="2.22987">
        <ele>31.18</ele>
        <time>2025-11-06T13:06:45Z</time>
      </trkpt>
      <trkpt lat="48.82199" lon="2.22991">
        <ele>29.64</ele>
        <time>2025-11-06T13:07:01Z</time>
      </trkpt>
      <trkpt lat="48.822" lon="2.23007">
        <ele>27.83</ele>
        <time>2025-11-06T13:07:16Z</time>
      </trkpt>
      <trkpt lat="48.82189" lon="2.23024">
        <ele>25.88</ele>
        <time>2025-11-06T13:07:35Z</time>
      </trkpt>
      <trkpt lat="48.82189" lon="2.2304">
        <ele>25.45</ele>
        <time>2025-11-06T13:07:47Z</time>
      </trkpt>
      <trkpt lat="48.82193" lon="2.23037">
        <ele>24.54</ele>
        <time>2025-11-06T13:08:02Z</time>
      </trkpt>
      <trkpt lat="48.82198" lon="2.23033">
        <ele>22.7</ele>
        <time>2025-11-06T13:08:12Z</time>
      </trkpt>
      <trkpt lat="48.82206" lon="2.23031">
        <ele>21.68</ele>
        <time>2025-11-06T13:08:22Z</time>
      </trkpt>
      <trkpt lat="48.8221" lon="2.23018">
        <ele>19.72</ele>
        <time>2025-11-06T13:08:34Z</time>
      </trkpt>
      <trkpt lat="48.8223" lon="2.23012">
        <ele>18.47</ele>
        <time>2025-11-06T13:08:48Z</time>
      </trkpt>
      <trkpt lat="48.82229" lon="2.23023">
        <ele>16.3</ele>
        <time>2025-11-06T13:09:03Z</time>
      </trkpt>
      <trkpt lat="48.82226" lon="2.23038">
        <ele>14.55</ele>
        <time>2025-11-06T13:09:19Z</time>
      </trkpt>
      <trkpt lat="48.82215" lon="2.23057">
        <ele>11.54</ele>
        <time>2025-11-06T13:09:39Z</time>
      </trkpt>
      <trkpt lat="48.82205" lon="2.23083">
        <ele>9.8</ele>
        <time>2025-11-06T13:09:55Z</time>
      </trkpt>
      <trkpt lat="48.82201" lon="2.23092">
        <ele>9.65</ele>
        <time>2025-11-06T13:10:03Z</time>
      </trkpt>
      <trkpt lat="48.82199" lon="2.23096">
        <ele>9.65</ele>
        <time>2025-11-06T13:10:07Z</time>
      </trkpt>
      <trkpt lat="48.822" lon="2.23118">
        <ele>8</ele>
        <time>2025-11-06T13:10:23Z</time>
      </trkpt>
      <trkpt lat="48.82197" lon="2.23128">
        <ele>5.32</ele>
        <time>2025-11-06T13:10:40Z</time>
      </trkpt>
      <trkpt lat="48.82196" lon="2.2313">
        <ele>4.51</ele>
        <time>2025-11-06T13:10:42Z</time>
      </trkpt>
      <trkpt lat="48.82195" lon="2.23132">
        <ele>4.68</ele>
        <time>2025-11-06T13:10:45Z</time>
      </trkpt>
      <trkpt lat="48.82195" lon="2.23146">
        <ele>4.65</ele>
        <time>2025-11-06T13:10:51Z</time>
      </trkpt>
      <trkpt lat="48.82202" lon="2.23161">
        <ele>5.55</ele>
        <time>2025-11-06T13:11:04Z</time>
      </trkpt>
      <trkpt lat="48.82212" lon="2.23158">
        <ele>4.93</ele>
        <time>2025-11-06T13:11:19Z</time>
      </trkpt>
      <trkpt lat="48.82217" lon="2.23156">
        <ele>5.44</ele>
        <time>2025-11-06T13:11:38Z</time>
      </trkpt>
      <trkpt lat="48.82217" lon="2.23156">
        <ele>5.1</ele>
        <time>2025-11-06T13:11:42Z</time>
      </trkpt>
      <trkpt lat="48.82208" lon="2.23141">
        <ele>5.1</ele>
        <time>2025-11-06T13:11:57Z</time>
      </trkpt>
      <trkpt lat="48.8221" lon="2.23139">
        <ele>5.47</ele>
        <time>2025-11-06T13:12:00Z</time>
      </trkpt>
      <trkpt lat="48.82214" lon="2.23143">
        <ele>6.02</ele>
        <time>2025-11-06T13:12:22Z</time>
      </trkpt>
      <trkpt lat="48.82215" lon="2.23143">
        <ele>5.6</ele>
        <time>2025-11-06T13:12:43Z</time>
      </trkpt>
      <trkpt lat="48.82217" lon="2.23145">
        <ele>5.45</ele>
        <time>2025-11-06T13:13:01Z</time>
      </trkpt>
      <trkpt lat="48.82217" lon="2.23145">
        <ele>4.99</ele>
        <time>2025-11-06T13:13:17Z</time>
      </trkpt>
      <trkpt lat="48.82216" lon="2.23144">
        <ele>5.47</ele>
        <time>2025-11-06T13:13:38Z</time>
      </trkpt>
      <trkpt lat="48.82216" lon="2.23145">
        <ele>6.17</ele>
        <time>2025-11-06T13:13:46Z</time>
      </trkpt>
      <trkpt lat="48.82221" lon="2.23144">
        <ele>4.81</ele>
        <time>2025-11-06T13:13:57Z</time>
      </trkpt>
    </trkseg>
  </trk>
</gpx>